Wetterdaten: Freitag, 18.10.2019
Datum Zeit Temp. Aussen Temp. o. S. Temp +5cm Feuchte Auss Luftdruck Regen Sonnenschein Regendauer Solar Windben Empfang
18.10.2019 00:00 13,7 C 12,2 C 12,2 C 98 % 1010,1 hPa 0,0 l/m 0 min 0 min 0 W/m 6,4 km/h (2 Bft) 97,83 %
18.10.2019 00:02 13,7 C 12,2 C 12,2 C 98 % 1010,0 hPa 0,0 l/m 0 min 0 min 0 W/m 0,0 km/h (0 Bft) 12,50 %
18.10.2019 00:04 13,7 C 12,8 C 12,2 C 98 % 1010,1 hPa 0,0 l/m 0 min 0 min 0 W/m 3,2 km/h (1 Bft) 63,16 %
18.10.2019 00:08 13,6 C 12,2 C 11,7 C 98 % 1010,0 hPa 0,0 l/m 0 min 0 min 0 W/m 12,9 km/h (3 Bft) 95,74 %
18.10.2019 00:10 13,6 C 12,2 C 11,7 C 98 % 1010,0 hPa 0,0 l/m 0 min 0 min 0 W/m 6,4 km/h (2 Bft) 100,00 %
18.10.2019 00:12 13,6 C 12,2 C 11,7 C 98 % 1010,0 hPa 0,0 l/m 0 min 0 min 0 W/m 3,2 km/h (1 Bft) 100,00 %
18.10.2019 00:14 13,6 C 12,2 C 11,7 C 98 % 1010,0 hPa 0,0 l/m 0 min 0 min 0 W/m 3,2 km/h (1 Bft) 100,00 %
18.10.2019 00:16 13,6 C 12,2 C 11,7 C 98 % 1010,0 hPa 0,0 l/m 0 min 0 min 0 W/m 3,2 km/h (1 Bft) 100,00 %
18.10.2019 00:18 13,6 C 12,2 C 11,7 C 98 % 1010,0 hPa 0,0 l/m 0 min 0 min 0 W/m 6,4 km/h (2 Bft) 100,00 %
18.10.2019 00:20 13,6 C 12,2 C 11,7 C 98 % 1010,0 hPa 0,0 l/m 0 min 0 min 0 W/m 12,9 km/h (3 Bft) 100,00 %
18.10.2019 00:22 13,6 C 12,2 C 11,7 C 98 % 1010,0 hPa 0,0 l/m 0 min 0 min 0 W/m 6,4 km/h (2 Bft) 97,87 %
18.10.2019 00:24 13,6 C 12,2 C 11,7 C 98 % 1010,0 hPa 0,0 l/m 0 min 0 min 0 W/m 3,2 km/h (1 Bft) 100,00 %
18.10.2019 00:26 13,5 C 12,2 C 11,7 C 98 % 1010,0 hPa 0,0 l/m 0 min 0 min 0 W/m 6,4 km/h (2 Bft) 100,00 %
18.10.2019 00:28 13,5 C 12,2 C 11,7 C 97 % 1010,0 hPa 0,0 l/m 0 min 0 min 0 W/m 3,2 km/h (1 Bft) 100,00 %
18.10.2019 00:30 13,5 C 12,2 C 11,7 C 97 % 1010,0 hPa 0,0 l/m 0 min 0 min 0 W/m 3,2 km/h (1 Bft) 100,00 %
18.10.2019 00:32 13,4 C 12,2 C 11,7 C 98 % 1010,0 hPa 0,0 l/m 0 min 0 min 0 W/m 6,4 km/h (2 Bft) 100,00 %
18.10.2019 00:34 13,4 C 12,2 C 11,7 C 98 % 1009,9 hPa 0,0 l/m 0 min 0 min 0 W/m 3,2 km/h (1 Bft) 100,00 %
18.10.2019 00:36 13,4 C 12,2 C 11,7 C 98 % 1009,9 hPa 0,0 l/m 0 min 0 min 0 W/m 6,4 km/h (2 Bft) 100,00 %
18.10.2019 00:38 13,4 C 12,2 C 11,7 C 98 % 1009,9 hPa 0,0 l/m 0 min 0 min 0 W/m 3,2 km/h (1 Bft) 100,00 %
18.10.2019 00:40 13,4 C 11,7 C 11,7 C 98 % 1009,9 hPa 0,0 l/m 0 min 0 min 0 W/m 3,2 km/h (1 Bft) 100,00 %
18.10.2019 00:42 13,3 C 11,7 C 11,7 C 97 % 1009,8 hPa 0,0 l/m 0 min 0 min 0 W/m 0,0 km/h (0 Bft) 100,00 %
18.10.2019 00:44 13,3 C 11,7 C 11,7 C 97 % 1009,9 hPa 0,0 l/m 0 min 0 min 0 W/m 6,4 km/h (2 Bft) 100,00 %
18.10.2019 00:46 13,3 C 11,7 C 11,7 C 97 % 1009,8 hPa 0,0 l/m 0 min 0 min 0 W/m 6,4 km/h (2 Bft) 100,00 %
18.10.2019 00:48 13,3 C 11,7 C 11,7 C 97 % 1009,8 hPa 0,0 l/m 0 min 0 min 0 W/m 6,4 km/h (2 Bft) 100,00 %
18.10.2019 00:50 13,2 C 11,7 C 11,7 C 97 % 1009,8 hPa 0,0 l/m 0 min 0 min 0 W/m 3,2 km/h (1 Bft) 100,00 %
18.10.2019 00:52 13,2 C 11,7 C 11,7 C 97 % 1009,8 hPa 0,0 l/m 0 min 0 min 0 W/m 0,0 km/h (0 Bft) 100,00 %
18.10.2019 00:54 13,2 C 11,7 C 11,7 C 97 % 1009,8 hPa 0,0 l/m 0 min 0 min 0 W/m 0,0 km/h (0 Bft) 100,00 %
18.10.2019 00:56 13,2 C 11,7 C 11,7 C 97 % 1009,8 hPa 0,0 l/m 0 min 0 min 0 W/m 0,0 km/h (0 Bft) 97,87 %
18.10.2019 00:58 13,2 C 11,7 C 11,7 C 97 % 1009,8 hPa 0,0 l/m 0 min 0 min 0 W/m 0,0 km/h (0 Bft) 100,00 %
18.10.2019 01:00 13,2 C 11,7 C 11,7 C 97 % 1009,8 hPa 0,0 l/m 0 min 0 min 0 W/m 0,0 km/h (0 Bft) 100,00 %
18.10.2019 01:02 13,1 C 11,7 C 11,7 C 97 % 1009,8 hPa 0,0 l/m 0 min 0 min 0 W/m 12,9 km/h (3 Bft) 100,00 %
18.10.2019 01:04 13,1 C 11,7 C 11,7 C 97 % 1009,8 hPa 0,0 l/m 0 min 0 min 0 W/m 6,4 km/h (2 Bft) 100,00 %
18.10.2019 01:08 13,1 C 11,7 C 11,7 C 97 % 1009,8 hPa 0,0 l/m 0 min 0 min 0 W/m 12,9 km/h (3 Bft) 98,04 %
18.10.2019 01:10 13,1 C 11,7 C 11,7 C 97 % 1009,7 hPa 0,0 l/m 0 min 0 min 0 W/m 3,2 km/h (1 Bft) 97,83 %
18.10.2019 01:12 13,1 C 11,7 C 11,7 C 97 % 1009,8 hPa 0,0 l/m 0 min 0 min 0 W/m 6,4 km/h (2 Bft) 95,74 %
18.10.2019 01:14 13,0 C 11,7 C 11,7 C 97 % 1009,7 hPa 0,0 l/m 0 min 0 min 0 W/m 6,4 km/h (2 Bft) 97,87 %
18.10.2019 01:16 13,0 C 11,7 C 11,7 C 97 % 1009,7 hPa 0,0 l/m 0 min 0 min 0 W/m 3,2 km/h (1 Bft) 97,87 %
18.10.2019 01:18 12,9 C 11,7 C 11,7 C 97 % 1009,8 hPa 0,0 l/m 0 min 0 min 0 W/m 3,2 km/h (1 Bft) 97,87 %
18.10.2019 01:20 12,9 C 11,7 C 11,7 C 97 % 1009,7 hPa 0,0 l/m 0 min 0 min 0 W/m 0,0 km/h (0 Bft) 97,87 %
18.10.2019 01:22 12,9 C 11,7 C 11,7 C 97 % 1009,7 hPa 0,0 l/m 0 min 0 min 0 W/m 0,0 km/h (0 Bft) 95,65 %
18.10.2019 01:24 12,9 C 11,7 C 11,7 C 97 % 1009,7 hPa 0,0 l/m 0 min 0 min 0 W/m 0,0 km/h (0 Bft) 97,87 %
18.10.2019 01:26 12,9 C 11,7 C 11,7 C 97 % 1009,6 hPa 0,0 l/m 0 min 0 min 0 W/m 0,0 km/h (0 Bft) 97,87 %
18.10.2019 01:28 12,9 C 11,7 C 11,7 C 97 % 1009,7 hPa 0,0 l/m 0 min 0 min 0 W/m 3,2 km/h (1 Bft) 97,87 %
18.10.2019 01:30 12,9 C 11,7 C 11,7 C 97 % 1009,7 hPa 0,0 l/m 0 min 0 min 0 W/m 3,2 km/h (1 Bft) 97,87 %
18.10.2019 01:32 12,9 C 11,7 C 11,1 C 97 % 1009,6 hPa 0,0 l/m 0 min 0 min 0 W/m 3,2 km/h (1 Bft) 97,87 %
18.10.2019 01:34 12,8 C 11,7 C 11,1 C 97 % 1009,6 hPa 0,0 l/m 0 min 0 min 0 W/m 6,4 km/h (2 Bft) 97,83 %
18.10.2019 01:36 12,8 C 11,7 C 11,1 C 97 % 1009,6 hPa 0,0 l/m 0 min 0 min 0 W/m 3,2 km/h (1 Bft) 97,87 %
18.10.2019 01:38 12,8 C 11,7 C 11,1 C 97 % 1009,6 hPa 0,0 l/m 0 min 0 min 0 W/m 3,2 km/h (1 Bft) 98,00 %
18.10.2019 01:40 12,8 C 11,7 C 11,1 C 97 % 1009,6 hPa 0,0 l/m 0 min 0 min 0 W/m 3,2 km/h (1 Bft) 97,87 %
18.10.2019 01:42 12,8 C 11,7 C 11,1 C 97 % 1009,5 hPa 0,0 l/m 0 min 0 min 0 W/m 6,4 km/h (2 Bft) 97,87 %
18.10.2019 01:44 12,8 C 11,7 C 11,1 C 97 % 1009,5 hPa 0,0 l/m 0 min 0 min 0 W/m 12,9 km/h (3 Bft) 97,83 %
18.10.2019 01:46 12,8 C 11,7 C 11,7 C 97 % 1009,5 hPa 0,0 l/m 0 min 0 min 0 W/m 9,7 km/h (2 Bft) 97,87 %
18.10.2019 01:48 12,7 C 11,7 C 11,1 C 97 % 1009,5 hPa 0,0 l/m 0 min 0 min 0 W/m 6,4 km/h (2 Bft) 97,87 %
18.10.2019 01:50 12,7 C 11,7 C 11,1 C 97 % 1009,5 hPa 0,0 l/m 0 min 0 min 0 W/m 12,9 km/h (3 Bft) 97,87 %
18.10.2019 01:52 12,7 C 11,7 C 11,1 C 97 % 1009,4 hPa 0,0 l/m 0 min 0 min 0 W/m 12,9 km/h (3 Bft) 95,74 %
18.10.2019 01:54 12,7 C 11,7 C 11,1 C 97 % 1009,4 hPa 0,0 l/m 0 min 0 min 0 W/m 6,4 km/h (2 Bft) 95,74 %
18.10.2019 01:56 12,7 C 11,7 C 11,1 C 97 % 1009,5 hPa 0,0 l/m 0 min 0 min 0 W/m 6,4 km/h (2 Bft) 97,83 %
18.10.2019 01:58 12,7 C 11,7 C 11,1 C 97 % 1009,5 hPa 0,0 l/m 0 min 0 min 0 W/m 6,4 km/h (2 Bft) 97,87 %
18.10.2019 02:00 12,6 C 11,7 C 11,1 C 97 % 1009,5 hPa 0,0 l/m 0 min 0 min 0 W/m 6,4 km/h (2 Bft) 97,87 %
18.10.2019 02:02 12,6 C 11,7 C 11,1 C 97 % 1009,5 hPa 0,0 l/m 0 min 0 min 0 W/m 12,9 km/h (3 Bft) 93,62 %
18.10.2019 02:04 12,6 C 11,7 C 11,1 C 97 % 1009,4 hPa 0,0 l/m 0 min 0 min 0 W/m 3,2 km/h (1 Bft) 93,62 %
18.10.2019 02:06 12,6 C 11,7 C 11,1 C 97 % 1009,5 hPa 0,0 l/m 0 min 0 min 0 W/m 6,4 km/h (2 Bft) 91,49 %
18.10.2019 02:08 12,6 C 11,7 C 11,1 C 97 % 1009,5 hPa 0,0 l/m 0 min 0 min 0 W/m 6,4 km/h (2 Bft) 95,65 %
18.10.2019 02:10 12,6 C 11,7 C 11,1 C 97 % 1009,5 hPa 0,0 l/m 0 min 0 min 0 W/m 6,4 km/h (2 Bft) 95,74 %
18.10.2019 02:12 12,6 C 11,7 C 11,1 C 97 % 1009,4 hPa 0,0 l/m 0 min 0 min 0 W/m 6,4 km/h (2 Bft) 95,74 %
18.10.2019 02:14 12,6 C 11,1 C 11,1 C 97 % 1009,4 hPa 0,0 l/m 0 min 0 min 0 W/m 6,4 km/h (2 Bft) 95,74 %
18.10.2019 02:16 12,6 C 11,1 C 11,1 C 97 % 1009,5 hPa 0,0 l/m 0 min 0 min 0 W/m 3,2 km/h (1 Bft) 95,74 %
18.10.2019 02:18 12,6 C 11,1 C 11,1 C 97 % 1009,5 hPa 0,0 l/m 0 min 0 min 0 W/m 0,0 km/h (0 Bft) 95,74 %
18.10.2019 02:20 12,5 C 11,1 C 11,1 C 97 % 1009,4 hPa 0,0 l/m 0 min 0 min 0 W/m 0,0 km/h (0 Bft) 95,65 %
18.10.2019 02:22 12,5 C 11,1 C 11,1 C 97 % 1009,4 hPa 0,0 l/m 0 min 0 min 0 W/m 0,0 km/h (0 Bft) 95,74 %
18.10.2019 02:24 12,5 C 11,1 C 11,1 C 97 % 1009,4 hPa 0,0 l/m 0 min 0 min 0 W/m 0,0 km/h (0 Bft) 93,62 %
18.10.2019 02:26 12,5 C 11,1 C 11,1 C 97 % 1009,3 hPa 0,0 l/m 0 min 0 min 0 W/m 12,9 km/h (3 Bft) 95,74 %
18.10.2019 02:28 12,5 C 11,1 C 11,1 C 97 % 1009,3 hPa 0,0 l/m 0 min 0 min 0 W/m 12,9 km/h (3 Bft) 95,74 %
18.10.2019 02:30 12,4 C 11,1 C 11,1 C 97 % 1009,2 hPa 0,0 l/m 0 min 0 min 0 W/m 6,4 km/h (2 Bft) 93,62 %
18.10.2019 02:32 12,5 C 11,1 C 11,1 C 97 % 1009,2 hPa 0,0 l/m 0 min 0 min 0 W/m 12,9 km/h (3 Bft) 95,65 %
18.10.2019 02:34 12,4 C 11,1 C 11,1 C 97 % 1009,2 hPa 0,0 l/m 0 min 0 min 0 W/m 6,4 km/h (2 Bft) 95,74 %
18.10.2019 02:36 12,4 C 11,1 C 11,1 C 97 % 1009,2 hPa 0,0 l/m 0 min 0 min 0 W/m 3,2 km/h (1 Bft) 93,62 %
18.10.2019 02:38 12,4 C 11,1 C 11,1 C 97 % 1009,2 hPa 0,0 l/m 0 min 0 min 0 W/m 12,9 km/h (3 Bft) 95,74 %
18.10.2019 02:40 12,4 C 11,1 C 11,1 C 97 % 1009,1 hPa 0,0 l/m 0 min 0 min 0 W/m 3,2 km/h (1 Bft) 55,32 %
18.10.2019 02:42 12,4 C 11,1 C 11,1 C 97 % 1009,1 hPa 0,0 l/m 0 min 0 min 0 W/m 12,9 km/h (3 Bft) 95,00 %
18.10.2019 02:44 12,4 C 11,1 C 11,1 C 96 % 1009,1 hPa 0,0 l/m 0 min 0 min 0 W/m 12,9 km/h (3 Bft) 93,62 %
18.10.2019 02:46 12,4 C 11,1 C 11,1 C 96 % 1009,1 hPa 0,0 l/m 0 min 0 min 0 W/m 6,4 km/h (2 Bft) 97,87 %
18.10.2019 02:48 12,4 C 11,1 C 11,1 C 96 % 1009,2 hPa 0,0 l/m 0 min 0 min 0 W/m 9,7 km/h (2 Bft) 95,74 %
18.10.2019 02:50 12,4 C 11,1 C 11,1 C 96 % 1009,2 hPa 0,0 l/m 0 min 0 min 0 W/m 12,9 km/h (3 Bft) 95,74 %
18.10.2019 02:52 12,4 C 11,1 C 11,1 C 96 % 1009,2 hPa 0,0 l/m 0 min 0 min 0 W/m 6,4 km/h (2 Bft) 100,00 %
18.10.2019 02:54 12,4 C 11,1 C 11,1 C 96 % 1009,2 hPa 0,0 l/m 0 min 0 min 0 W/m 6,4 km/h (2 Bft) 100,00 %
18.10.2019 02:56 12,4 C 11,1 C 11,1 C 96 % 1009,2 hPa 0,0 l/m 0 min 0 min 0 W/m 6,4 km/h (2 Bft) 100,00 %
18.10.2019 02:58 12,4 C 11,1 C 10,6 C 96 % 1009,2 hPa 0,0 l/m 0 min 0 min 0 W/m 6,4 km/h (2 Bft) 97,87 %
18.10.2019 03:00 12,3 C 11,1 C 11,1 C 96 % 1009,1 hPa 0,0 l/m 0 min 0 min 0 W/m 12,9 km/h (3 Bft) 100,00 %
18.10.2019 03:02 12,3 C 11,1 C 11,1 C 96 % 1009,1 hPa 0,0 l/m 0 min 0 min 0 W/m 6,4 km/h (2 Bft) 100,00 %
18.10.2019 03:04 12,3 C 11,1 C 11,1 C 96 % 1009,1 hPa 0,0 l/m 0 min 0 min 0 W/m 12,9 km/h (3 Bft) 100,00 %
18.10.2019 03:06 12,3 C 11,1 C 11,1 C 96 % 1009,1 hPa 0,0 l/m 0 min 0 min 0 W/m 0,0 km/h (0 Bft) 100,00 %
18.10.2019 03:08 12,3 C 11,1 C 10,6 C 96 % 1009,1 hPa 0,0 l/m 0 min 0 min 0 W/m 6,4 km/h (2 Bft) 100,00 %
18.10.2019 03:10 12,3 C 11,1 C 11,1 C 96 % 1009,1 hPa 0,0 l/m 0 min 0 min 0 W/m 6,4 km/h (2 Bft) 100,00 %
18.10.2019 03:12 12,3 C 11,1 C 10,6 C 96 % 1009,1 hPa 0,0 l/m 0 min 0 min 0 W/m 6,4 km/h (2 Bft) 100,00 %
18.10.2019 03:14 12,3 C 11,1 C 10,6 C 96 % 1009,1 hPa 0,0 l/m 0 min 0 min 0 W/m 16,1 km/h (3 Bft) 100,00 %
18.10.2019 03:16 12,3 C 11,1 C 11,1 C 96 % 1009,0 hPa 0,0 l/m 0 min 0 min 0 W/m 12,9 km/h (3 Bft) 100,00 %
18.10.2019 03:18 12,3 C 11,1 C 11,1 C 96 % 1009,0 hPa 0,0 l/m 0 min 0 min 0 W/m 6,4 km/h (2 Bft) 100,00 %
18.10.2019 03:20 12,3 C 11,1 C 11,1 C 96 % 1009,0 hPa 0,0 l/m 0 min 0 min 0 W/m 12,9 km/h (3 Bft) 100,00 %
18.10.2019 03:22 12,3 C 11,1 C 11,1 C 96 % 1008,9 hPa 0,0 l/m 0 min 0 min 0 W/m 12,9 km/h (3 Bft) 100,00 %
18.10.2019 03:24 12,3 C 11,1 C 11,1 C 96 % 1008,9 hPa 0,0 l/m 0 min 0 min 0 W/m 3,2 km/h (1 Bft) 100,00 %
18.10.2019 03:26 12,3 C 11,1 C 11,1 C 96 % 1008,8 hPa 0,0 l/m 0 min 0 min 0 W/m 12,9 km/h (3 Bft) 100,00 %
18.10.2019 03:28 12,3 C 11,1 C 11,1 C 96 % 1008,9 hPa 0,0 l/m 0 min 0 min 0 W/m 16,1 km/h (3 Bft) 100,00 %
18.10.2019 03:30 12,3 C 11,1 C 11,1 C 96 % 1008,8 hPa 0,0 l/m 0 min 0 min 0 W/m 6,4 km/h (2 Bft) 100,00 %
18.10.2019 03:32 12,3 C 11,1 C 11,1 C 96 % 1008,8 hPa 0,0 l/m 0 min 0 min 0 W/m 6,4 km/h (2 Bft) 100,00 %
18.10.2019 03:34 12,3 C 11,1 C 11,1 C 96 % 1008,8 hPa 0,0 l/m 0 min 0 min 0 W/m 12,9 km/h (3 Bft) 100,00 %
18.10.2019 03:36 12,3 C 11,7 C 11,1 C 96 % 1008,8 hPa 0,0 l/m 0 min 0 min 0 W/m 12,9 km/h (3 Bft) 100,00 %
18.10.2019 03:38 12,3 C 11,1 C 11,1 C 96 % 1008,8 hPa 0,0 l/m 0 min 0 min 0 W/m 3,2 km/h (1 Bft) 100,00 %
18.10.2019 03:40 12,3 C 11,1 C 11,1 C 96 % 1008,8 hPa 0,0 l/m 0 min 0 min 0 W/m 6,4 km/h (2 Bft) 97,87 %
18.10.2019 03:42 12,3 C 11,7 C 11,1 C 96 % 1008,8 hPa 0,0 l/m 0 min 0 min 0 W/m 12,9 km/h (3 Bft) 100,00 %
18.10.2019 03:44 12,3 C 11,7 C 11,1 C 96 % 1008,8 hPa 0,0 l/m 0 min 0 min 0 W/m 12,9 km/h (3 Bft) 100,00 %
18.10.2019 03:46 12,3 C 11,7 C 11,1 C 96 % 1008,8 hPa 0,0 l/m 0 min 0 min 0 W/m 6,4 km/h (2 Bft) 100,00 %
18.10.2019 03:48 12,3 C 11,7 C 11,1 C 96 % 1008,8 hPa 0,0 l/m 0 min 0 min 0 W/m 12,9 km/h (3 Bft) 100,00 %
18.10.2019 03:50 12,3 C 11,7 C 11,1 C 96 % 1008,8 hPa 0,0 l/m 0 min 0 min 0 W/m 12,9 km/h (3 Bft) 100,00 %
18.10.2019 03:52 12,3 C 11,7 C 11,1 C 96 % 1008,8 hPa 0,0 l/m 0 min 0 min 0 W/m 12,9 km/h (3 Bft) 100,00 %
18.10.2019 03:54 12,4 C 11,7 C 11,1 C 96 % 1008,8 hPa 0,0 l/m 0 min 0 min 0 W/m 6,4 km/h (2 Bft) 100,00 %
18.10.2019 03:56 12,4 C 11,7 C 11,1 C 96 % 1008,7 hPa 0,0 l/m 0 min 0 min 0 W/m 16,1 km/h (3 Bft) 100,00 %
18.10.2019 03:58 12,4 C 11,7 C 11,1 C 96 % 1008,7 hPa 0,0 l/m 0 min 0 min 0 W/m 12,9 km/h (3 Bft) 100,00 %
18.10.2019 04:00 12,4 C 11,7 C 11,1 C 96 % 1008,6 hPa 0,0 l/m 0 min 0 min 0 W/m 9,7 km/h (2 Bft) 100,00 %
18.10.2019 04:02 12,4 C 11,7 C 11,1 C 96 % 1008,6 hPa 0,0 l/m 0 min 0 min 0 W/m 6,4 km/h (2 Bft) 100,00 %
18.10.2019 04:04 12,4 C 11,7 C 11,7 C 96 % 1008,5 hPa 0,0 l/m 0 min 0 min 0 W/m 16,1 km/h (3 Bft) 100,00 %
18.10.2019 04:06 12,4 C 11,7 C 11,7 C 95 % 1008,5 hPa 0,0 l/m 0 min 0 min 0 W/m 6,4 km/h (2 Bft) 100,00 %
18.10.2019 04:08 12,4 C 11,7 C 11,7 C 95 % 1008,4 hPa 0,0 l/m 0 min 0 min 0 W/m 16,1 km/h (3 Bft) 100,00 %
18.10.2019 04:10 12,5 C 11,7 C 11,7 C 95 % 1008,5 hPa 0,0 l/m 0 min 0 min 0 W/m 12,9 km/h (3 Bft) 97,87 %
18.10.2019 04:12 12,5 C 11,7 C 11,7 C 95 % 1008,5 hPa 0,0 l/m 0 min 0 min 0 W/m 19,3 km/h (3 Bft) 100,00 %
18.10.2019 04:14 12,5 C 11,7 C 11,7 C 95 % 1008,3 hPa 0,0 l/m 0 min 0 min 0 W/m 12,9 km/h (3 Bft) 100,00 %
18.10.2019 04:16 12,6 C 11,7 C 11,7 C 95 % 1008,3 hPa 0,0 l/m 0 min 0 min 0 W/m 12,9 km/h (3 Bft) 100,00 %
18.10.2019 04:18 12,6 C 12,2 C 11,7 C 95 % 1008,4 hPa 0,0 l/m 0 min 0 min 0 W/m 12,9 km/h (3 Bft) 97,87 %
18.10.2019 04:20 12,6 C 12,2 C 11,7 C 95 % 1008,3 hPa 0,0 l/m 0 min 0 min 0 W/m 16,1 km/h (3 Bft) 100,00 %
18.10.2019 04:22 12,6 C 12,2 C 11,7 C 95 % 1008,3 hPa 0,0 l/m 0 min 0 min 0 W/m 12,9 km/h (3 Bft) 100,00 %
18.10.2019 04:24 12,6 C 12,2 C 11,7 C 95 % 1008,3 hPa 0,0 l/m 0 min 0 min 0 W/m 6,4 km/h (2 Bft) 100,00 %
18.10.2019 04:26 12,6 C 12,2 C 11,1 C 95 % 1008,2 hPa 0,0 l/m 0 min 0 min 0 W/m 12,9 km/h (3 Bft) 100,00 %
18.10.2019 04:28 12,6 C 11,7 C 11,1 C 95 % 1008,2 hPa 0,0 l/m 0 min 0 min 0 W/m 12,9 km/h (3 Bft) 100,00 %
18.10.2019 04:30 12,6 C 11,7 C 11,7 C 95 % 1008,2 hPa 0,0 l/m 0 min 0 min 0 W/m 19,3 km/h (3 Bft) 100,00 %
18.10.2019 04:32 12,6 C 11,7 C 11,1 C 95 % 1008,2 hPa 0,0 l/m 0 min 2 min 0 W/m 16,1 km/h (3 Bft) 100,00 %
18.10.2019 04:34 12,6 C 11,7 C 11,1 C 95 % 1008,2 hPa 0,0 l/m 0 min 2 min 0 W/m 12,9 km/h (3 Bft) 100,00 %
18.10.2019 04:36 12,6 C 11,7 C 11,1 C 95 % 1008,2 hPa 0,0 l/m 0 min 0 min 0 W/m 12,9 km/h (3 Bft) 100,00 %
18.10.2019 04:38 12,6 C 11,7 C 11,1 C 95 % 1008,1 hPa 0,0 l/m 0 min 0 min 0 W/m 16,1 km/h (3 Bft) 97,83 %
18.10.2019 04:40 12,6 C 11,7 C 11,1 C 95 % 1008,2 hPa 0,0 l/m 0 min 0 min 0 W/m 12,9 km/h (3 Bft) 97,87 %
18.10.2019 04:42 12,6 C 11,7 C 11,1 C 94 % 1008,1 hPa 0,0 l/m 0 min 0 min 0 W/m 19,3 km/h (3 Bft) 100,00 %
18.10.2019 04:44 12,7 C 11,7 C 11,7 C 94 % 1008,1 hPa 0,0 l/m 0 min 0 min 0 W/m 16,1 km/h (3 Bft) 95,74 %
18.10.2019 04:46 12,7 C 11,7 C 11,7 C 94 % 1008,0 hPa 0,0 l/m 0 min 2 min 0 W/m 12,9 km/h (3 Bft) 97,87 %
18.10.2019 04:48 12,7 C 11,7 C 11,1 C 94 % 1008,0 hPa 0,0 l/m 0 min 2 min 0 W/m 16,1 km/h (3 Bft) 91,49 %
18.10.2019 04:50 12,7 C 11,7 C 11,1 C 94 % 1008,0 hPa 0,0 l/m 0 min 2 min 0 W/m 19,3 km/h (3 Bft) 95,65 %
18.10.2019 04:52 12,7 C 11,1 C 10,6 C 94 % 1008,0 hPa 0,0 l/m 0 min 2 min 0 W/m 12,9 km/h (3 Bft) 91,49 %
18.10.2019 04:54 12,7 C 11,1 C 10,6 C 94 % 1007,9 hPa 0,0 l/m 0 min 2 min 0 W/m 16,1 km/h (3 Bft) 93,62 %
18.10.2019 04:56 12,7 C 11,1 C 10,6 C 94 % 1007,9 hPa 0,0 l/m 0 min 2 min 0 W/m 12,9 km/h (3 Bft) 95,74 %
18.10.2019 04:58 12,7 C 11,1 C 10,6 C 94 % 1007,8 hPa 0,0 l/m 0 min 2 min 0 W/m 16,1 km/h (3 Bft) 93,62 %
18.10.2019 05:00 12,7 C 11,1 C 10,6 C 94 % 1007,8 hPa 0,2 l/m 0 min 2 min 0 W/m 12,9 km/h (3 Bft) 91,49 %
18.10.2019 05:02 12,7 C 11,1 C 10,6 C 94 % 1007,7 hPa 0,0 l/m 0 min 2 min 0 W/m 16,1 km/h (3 Bft) 93,48 %
18.10.2019 05:04 12,7 C 11,1 C 10,6 C 94 % 1007,6 hPa 0,0 l/m 0 min 2 min 0 W/m 16,1 km/h (3 Bft) 93,62 %
18.10.2019 05:06 12,7 C 11,1 C 10,6 C 94 % 1007,6 hPa 0,0 l/m 0 min 2 min 0 W/m 19,3 km/h (3 Bft) 93,62 %
18.10.2019 05:08 12,7 C 11,1 C 10,6 C 94 % 1007,5 hPa 0,0 l/m 0 min 0 min 0 W/m 19,3 km/h (3 Bft) 93,62 %
18.10.2019 05:10 12,7 C 11,1 C 10,6 C 94 % 1007,5 hPa 0,0 l/m 0 min 0 min 0 W/m 12,9 km/h (3 Bft) 95,74 %
18.10.2019 05:12 12,7 C 11,1 C 10,6 C 94 % 1007,6 hPa 0,0 l/m 0 min 0 min 0 W/m 12,9 km/h (3 Bft) 93,62 %
18.10.2019 05:14 12,7 C 11,1 C 10,6 C 94 % 1007,5 hPa 0,0 l/m 0 min 0 min 0 W/m 22,5 km/h (4 Bft) 93,48 %
18.10.2019 05:16 12,7 C 11,1 C 10,6 C 94 % 1007,5 hPa 0,0 l/m 0 min 0 min 0 W/m 19,3 km/h (3 Bft) 91,49 %
18.10.2019 05:18 12,7 C 11,1 C 10,6 C 94 % 1007,5 hPa 0,0 l/m 0 min 0 min 0 W/m 6,4 km/h (2 Bft) 93,62 %
18.10.2019 05:20 12,7 C 11,1 C 10,6 C 95 % 1007,6 hPa 0,0 l/m 0 min 0 min 0 W/m 16,1 km/h (3 Bft) 93,62 %
18.10.2019 05:22 12,6 C 11,1 C 10,6 C 95 % 1007,5 hPa 0,0 l/m 0 min 0 min 0 W/m 22,5 km/h (4 Bft) 91,49 %
18.10.2019 05:24 12,6 C 11,1 C 10,6 C 95 % 1007,5 hPa 0,0 l/m 0 min 0 min 0 W/m 12,9 km/h (3 Bft) 93,62 %
18.10.2019 05:26 12,6 C 11,1 C 10,6 C 95 % 1007,5 hPa 0,0 l/m 0 min 0 min 0 W/m 12,9 km/h (3 Bft) 93,48 %
18.10.2019 05:28 12,6 C 11,1 C 10,6 C 95 % 1007,5 hPa 0,0 l/m 0 min 0 min 0 W/m 12,9 km/h (3 Bft) 93,62 %
18.10.2019 05:30 12,6 C 11,1 C 10,6 C 95 % 1007,5 hPa 0,0 l/m 0 min 0 min 0 W/m 16,1 km/h (3 Bft) 93,62 %
18.10.2019 05:32 12,6 C 11,1 C 10,6 C 95 % 1007,4 hPa 0,0 l/m 0 min 0 min 0 W/m 12,9 km/h (3 Bft) 93,62 %
18.10.2019 05:34 12,6 C 11,1 C 10,6 C 95 % 1007,3 hPa 0,0 l/m 0 min 0 min 0 W/m 12,9 km/h (3 Bft) 93,62 %
18.10.2019 05:36 12,6 C 11,1 C 10,6 C 95 % 1007,4 hPa 0,0 l/m 0 min 0 min 0 W/m 16,1 km/h (3 Bft) 93,48 %
18.10.2019 05:38 12,6 C 11,1 C 10,6 C 95 % 1007,4 hPa 0,0 l/m 0 min 0 min 0 W/m 16,1 km/h (3 Bft) 95,74 %
18.10.2019 05:40 12,6 C 11,1 C 10,6 C 95 % 1007,5 hPa 0,0 l/m 0 min 0 min 0 W/m 19,3 km/h (3 Bft) 97,87 %
18.10.2019 05:42 12,6 C 11,1 C 10,6 C 95 % 1007,5 hPa 0,0 l/m 0 min 0 min 0 W/m 16,1 km/h (3 Bft) 95,74 %
18.10.2019 05:44 12,6 C 11,1 C 10,6 C 95 % 1007,5 hPa 0,0 l/m 0 min 0 min 0 W/m 19,3 km/h (3 Bft) 100,00 %
18.10.2019 05:46 12,6 C 11,1 C 10,6 C 95 % 1007,5 hPa 0,0 l/m 0 min 0 min 0 W/m 16,1 km/h (3 Bft) 100,00 %
18.10.2019 05:48 12,6 C 11,1 C 10,6 C 95 % 1007,4 hPa 0,0 l/m 0 min 0 min 0 W/m 16,1 km/h (3 Bft) 100,00 %
18.10.2019 05:50 12,6 C 11,7 C 10,6 C 95 % 1007,3 hPa 0,0 l/m 0 min 0 min 0 W/m 16,1 km/h (3 Bft) 100,00 %
18.10.2019 05:52 12,6 C 11,7 C 10,6 C 95 % 1007,3 hPa 0,0 l/m 0 min 0 min 0 W/m 19,3 km/h (3 Bft) 100,00 %
18.10.2019 05:54 12,6 C 11,7 C 10,6 C 95 % 1007,3 hPa 0,0 l/m 0 min 0 min 0 W/m 16,1 km/h (3 Bft) 100,00 %
18.10.2019 05:56 12,6 C 11,7 C 10,6 C 95 % 1007,3 hPa 0,0 l/m 0 min 0 min 0 W/m 16,1 km/h (3 Bft) 100,00 %
18.10.2019 05:58 12,6 C 11,7 C 10,6 C 95 % 1007,3 hPa 0,0 l/m 0 min 0 min 0 W/m 16,1 km/h (3 Bft) 100,00 %
18.10.2019 06:00 12,6 C 11,7 C 10,6 C 95 % 1007,3 hPa 0,0 l/m 0 min 0 min 0 W/m 16,1 km/h (3 Bft) 100,00 %
18.10.2019 06:02 12,6 C 11,7 C 10,6 C 95 % 1007,2 hPa 0,0 l/m 0 min 0 min 0 W/m 16,1 km/h (3 Bft) 100,00 %
18.10.2019 06:04 12,6 C 11,7 C 11,1 C 95 % 1007,3 hPa 0,0 l/m 0 min 0 min 0 W/m 16,1 km/h (3 Bft) 100,00 %
18.10.2019 06:08 12,6 C 11,7 C 11,1 C 95 % 1007,1 hPa 0,0 l/m 0 min 0 min 0 W/m 16,1 km/h (3 Bft) 97,87 %
18.10.2019 06:10 12,6 C 11,7 C 10,6 C 95 % 1007,1 hPa 0,0 l/m 0 min 0 min 0 W/m 16,1 km/h (3 Bft) 100,00 %
18.10.2019 06:12 12,6 C 11,7 C 11,1 C 95 % 1007,0 hPa 0,0 l/m 0 min 0 min 0 W/m 19,3 km/h (3 Bft) 97,83 %
18.10.2019 06:14 12,6 C 11,7 C 11,1 C 95 % 1007,1 hPa 0,0 l/m 0 min 0 min 0 W/m 12,9 km/h (3 Bft) 100,00 %
18.10.2019 06:16 12,6 C 11,7 C 10,6 C 95 % 1007,1 hPa 0,0 l/m 0 min 0 min 0 W/m 19,3 km/h (3 Bft) 100,00 %
18.10.2019 06:18 12,6 C 11,7 C 10,6 C 95 % 1007,0 hPa 0,0 l/m 0 min 0 min 0 W/m 19,3 km/h (3 Bft) 100,00 %
18.10.2019 06:20 12,6 C 11,7 C 10,6 C 95 % 1007,0 hPa 0,0 l/m 0 min 0 min 0 W/m 12,9 km/h (3 Bft) 100,00 %
18.10.2019 06:22 12,6 C 11,7 C 10,6 C 95 % 1007,0 hPa 0,0 l/m 0 min 0 min 0 W/m 16,1 km/h (3 Bft) 97,87 %
18.10.2019 06:24 12,6 C 11,7 C 10,6 C 95 % 1007,0 hPa 0,0 l/m 0 min 0 min 0 W/m 12,9 km/h (3 Bft) 100,00 %
18.10.2019 06:26 12,6 C 11,7 C 11,1 C 95 % 1007,0 hPa 0,0 l/m 0 min 0 min 0 W/m 12,9 km/h (3 Bft) 100,00 %
18.10.2019 06:28 12,6 C 11,7 C 11,1 C 95 % 1007,0 hPa 0,0 l/m 0 min 0 min 0 W/m 12,9 km/h (3 Bft) 97,87 %
18.10.2019 06:30 12,6 C 11,7 C 11,1 C 95 % 1007,0 hPa 0,0 l/m 0 min 0 min 0 W/m 12,9 km/h (3 Bft) 100,00 %
18.10.2019 06:32 12,6 C 11,7 C 11,1 C 95 % 1007,0 hPa 0,0 l/m 0 min 0 min 0 W/m 12,9 km/h (3 Bft) 100,00 %
18.10.2019 06:34 12,6 C 11,7 C 11,1 C 95 % 1007,0 hPa 0,0 l/m 0 min 2 min 0 W/m 16,1 km/h (3 Bft) 100,00 %
18.10.2019 06:36 12,6 C 11,7 C 11,1 C 96 % 1007,0 hPa 0,0 l/m 0 min 2 min 0 W/m 16,1 km/h (3 Bft) 100,00 %
18.10.2019 06:38 12,6 C 11,1 C 11,1 C 96 % 1007,1 hPa 0,0 l/m 0 min 2 min 0 W/m 6,4 km/h (2 Bft) 100,00 %
18.10.2019 06:40 12,6 C 11,1 C 11,1 C 96 % 1007,1 hPa 0,0 l/m 0 min 2 min 0 W/m 19,3 km/h (3 Bft) 100,00 %
18.10.2019 06:42 12,6 C 11,7 C 11,1 C 96 % 1007,1 hPa 0,0 l/m 0 min 2 min 0 W/m 12,9 km/h (3 Bft) 100,00 %
18.10.2019 06:44 12,6 C 11,7 C 11,1 C 96 % 1007,2 hPa 0,0 l/m 0 min 2 min 0 W/m 16,1 km/h (3 Bft) 100,00 %
18.10.2019 06:46 12,7 C 11,7 C 11,1 C 96 % 1007,2 hPa 0,0 l/m 0 min 2 min 0 W/m 19,3 km/h (3 Bft) 100,00 %
18.10.2019 06:48 12,7 C 11,7 C 11,1 C 96 % 1007,1 hPa 0,2 l/m 0 min 2 min 0 W/m 22,5 km/h (4 Bft) 100,00 %
18.10.2019 06:50 12,8 C 11,7 C 11,1 C 96 % 1007,1 hPa 0,2 l/m 0 min 2 min 0 W/m 22,5 km/h (4 Bft) 97,87 %
18.10.2019 06:52 12,8 C 11,7 C 11,1 C 96 % 1007,0 hPa 0,0 l/m 0 min 2 min 0 W/m 19,3 km/h (3 Bft) 100,00 %
18.10.2019 06:54 12,8 C 11,7 C 11,1 C 96 % 1007,0 hPa 0,0 l/m 0 min 2 min 0 W/m 16,1 km/h (3 Bft) 100,00 %
18.10.2019 06:56 12,9 C 11,7 C 11,1 C 97 % 1006,9 hPa 0,0 l/m 0 min 2 min 0 W/m 16,1 km/h (3 Bft) 100,00 %
18.10.2019 06:58 12,9 C 11,7 C 11,1 C 97 % 1006,9 hPa 0,0 l/m 0 min 2 min 0 W/m 19,3 km/h (3 Bft) 100,00 %
18.10.2019 07:00 13,0 C 11,7 C 11,1 C 97 % 1006,9 hPa 0,0 l/m 0 min 2 min 0 W/m 19,3 km/h (3 Bft) 100,00 %
18.10.2019 07:02 13,0 C 11,7 C 11,1 C 97 % 1006,8 hPa 0,0 l/m 0 min 2 min 0 W/m 16,1 km/h (3 Bft) 97,87 %
18.10.2019 07:04 13,1 C 11,7 C 11,1 C 97 % 1006,8 hPa 0,2 l/m 0 min 2 min 0 W/m 16,1 km/h (3 Bft) 95,74 %
18.10.2019 07:06 13,1 C 11,7 C 11,1 C 97 % 1006,7 hPa 0,0 l/m 0 min 0 min 0 W/m 12,9 km/h (3 Bft) 100,00 %
18.10.2019 07:08 13,1 C 11,7 C 11,1 C 97 % 1006,7 hPa 0,0 l/m 0 min 0 min 0 W/m 16,1 km/h (3 Bft) 100,00 %
18.10.2019 07:10 13,1 C 11,7 C 11,1 C 97 % 1006,6 hPa 0,0 l/m 0 min 0 min 0 W/m 16,1 km/h (3 Bft) 100,00 %
18.10.2019 07:12 13,1 C 11,7 C 11,1 C 97 % 1006,6 hPa 0,0 l/m 0 min 0 min 0 W/m 6,4 km/h (2 Bft) 97,87 %
18.10.2019 07:14 13,1 C 11,7 C 11,1 C 97 % 1006,6 hPa 0,0 l/m 0 min 0 min 0 W/m 3,2 km/h (1 Bft) 100,00 %
18.10.2019 07:16 13,1 C 11,7 C 11,1 C 97 % 1006,5 hPa 0,0 l/m 0 min 0 min 0 W/m 6,4 km/h (2 Bft) 97,87 %
18.10.2019 07:18 13,1 C 11,7 C 11,1 C 97 % 1006,5 hPa 0,0 l/m 0 min 0 min 0 W/m 6,4 km/h (2 Bft) 100,00 %
18.10.2019 07:20 13,1 C 11,7 C 11,1 C 97 % 1006,5 hPa 0,0 l/m 0 min 0 min 0 W/m 6,4 km/h (2 Bft) 100,00 %
18.10.2019 07:22 13,1 C 11,7 C 11,1 C 97 % 1006,5 hPa 0,0 l/m 0 min 0 min 0 W/m 3,2 km/h (1 Bft) 97,83 %
18.10.2019 07:24 13,1 C 11,7 C 11,1 C 97 % 1006,5 hPa 0,0 l/m 0 min 0 min 0 W/m 0,0 km/h (0 Bft) 97,87 %
18.10.2019 07:26 13,1 C 11,7 C 11,1 C 97 % 1006,5 hPa 0,0 l/m 0 min 0 min 0 W/m 3,2 km/h (1 Bft) 100,00 %
18.10.2019 07:28 13,1 C 11,7 C 11,1 C 97 % 1006,6 hPa 0,0 l/m 0 min 0 min 0 W/m 0,0 km/h (0 Bft) 100,00 %
18.10.2019 07:30 13,1 C 11,7 C 11,1 C 97 % 1006,5 hPa 0,0 l/m 0 min 0 min 0 W/m 3,2 km/h (1 Bft) 100,00 %
18.10.2019 07:32 13,1 C 11,7 C 11,1 C 97 % 1006,5 hPa 0,0 l/m 0 min 0 min 0 W/m 0,0 km/h (0 Bft) 97,83 %
18.10.2019 07:34 13,1 C 11,7 C 11,1 C 97 % 1006,5 hPa 0,0 l/m 0 min 0 min 0 W/m 0,0 km/h (0 Bft) 97,87 %
18.10.2019 07:36 13,1 C 11,7 C 11,1 C 97 % 1006,4 hPa 0,0 l/m 0 min 0 min 0 W/m 0,0 km/h (0 Bft) 95,74 %
18.10.2019 07:38 13,1 C 11,7 C 11,1 C 97 % 1006,4 hPa 0,0 l/m 0 min 0 min 0 W/m 0,0 km/h (0 Bft) 95,74 %
18.10.2019 07:40 13,1 C 11,7 C 11,1 C 97 % 1006,4 hPa 0,0 l/m 0 min 0 min 0 W/m 0,0 km/h (0 Bft) 95,74 %
18.10.2019 07:42 13,1 C 11,7 C 11,1 C 97 % 1006,4 hPa 0,0 l/m 0 min 0 min 0 W/m 0,0 km/h (0 Bft) 95,74 %
18.10.2019 07:44 13,1 C 11,7 C 11,1 C 97 % 1006,4 hPa 0,0 l/m 0 min 0 min 0 W/m 6,4 km/h (2 Bft) 95,74 %
18.10.2019 07:46 13,0 C 11,7 C 11,1 C 97 % 1006,3 hPa 0,0 l/m 0 min 0 min 0 W/m 6,4 km/h (2 Bft) 95,65 %
18.10.2019 07:48 13,0 C 11,7 C 11,1 C 97 % 1006,3 hPa 0,0 l/m 0 min 0 min 0 W/m 6,4 km/h (2 Bft) 95,74 %
18.10.2019 07:50 13,0 C 11,7 C 11,1 C 97 % 1006,3 hPa 0,0 l/m 0 min 0 min 0 W/m 12,9 km/h (3 Bft) 95,74 %
18.10.2019 07:52 12,9 C 11,7 C 11,1 C 97 % 1006,4 hPa 0,0 l/m 0 min 0 min 0 W/m 6,4 km/h (2 Bft) 93,62 %
18.10.2019 07:54 12,9 C 11,7 C 11,1 C 97 % 1006,4 hPa 0,0 l/m 0 min 0 min 0 W/m 12,9 km/h (3 Bft) 95,74 %
18.10.2019 07:56 12,9 C 11,7 C 11,1 C 97 % 1006,4 hPa 0,0 l/m 0 min 0 min 0 W/m 6,4 km/h (2 Bft) 95,65 %
18.10.2019 07:58 12,9 C 11,7 C 11,1 C 97 % 1006,4 hPa 0,0 l/m 0 min 0 min 0 W/m 12,9 km/h (3 Bft) 95,74 %
18.10.2019 08:00 12,9 C 11,7 C 11,1 C 97 % 1006,3 hPa 0,0 l/m 0 min 0 min 0 W/m 16,1 km/h (3 Bft) 93,62 %
18.10.2019 08:02 12,9 C 11,7 C 11,1 C 97 % 1006,4 hPa 0,0 l/m 0 min 0 min 0 W/m 16,1 km/h (3 Bft) 52,17 %
18.10.2019 08:04 12,9 C 11,7 C 11,1 C 97 % 1006,3 hPa 0,0 l/m 0 min 0 min 0 W/m 19,3 km/h (3 Bft) 100,00 %
18.10.2019 08:06 12,9 C 11,7 C 11,1 C 97 % 1006,3 hPa 0,0 l/m 0 min 0 min 0 W/m 12,9 km/h (3 Bft) 95,74 %
18.10.2019 08:08 12,9 C 11,7 C 11,7 C 97 % 1006,3 hPa 0,0 l/m 0 min 0 min 0 W/m 16,1 km/h (3 Bft) 93,48 %
18.10.2019 08:10 12,9 C 12,2 C 11,7 C 97 % 1006,3 hPa 0,0 l/m 0 min 0 min 1 W/m 12,9 km/h (3 Bft) 93,62 %
18.10.2019 08:12 12,9 C 12,2 C 11,7 C 97 % 1006,3 hPa 0,0 l/m 0 min 0 min 5 W/m 19,3 km/h (3 Bft) 97,87 %
18.10.2019 08:14 12,9 C 12,2 C 11,7 C 97 % 1006,3 hPa 0,0 l/m 0 min 0 min 5 W/m 16,1 km/h (3 Bft) 95,74 %
18.10.2019 08:16 12,9 C 12,2 C 11,7 C 97 % 1006,3 hPa 0,0 l/m 0 min 0 min 5 W/m 12,9 km/h (3 Bft) 93,62 %
18.10.2019 08:18 13,0 C 12,2 C 11,7 C 97 % 1006,3 hPa 0,0 l/m 0 min 0 min 5 W/m 12,9 km/h (3 Bft) 95,74 %
18.10.2019 08:20 13,0 C 12,2 C 11,7 C 97 % 1006,3 hPa 0,0 l/m 0 min 0 min 7 W/m 12,9 km/h (3 Bft) 95,65 %
18.10.2019 08:22 13,0 C 12,2 C 11,7 C 97 % 1006,3 hPa 0,0 l/m 0 min 0 min 7 W/m 19,3 km/h (3 Bft) 95,74 %
18.10.2019 08:24 13,1 C 12,2 C 11,7 C 97 % 1006,4 hPa 0,0 l/m 0 min 0 min 10 W/m 12,9 km/h (3 Bft) 95,74 %
18.10.2019 08:26 13,1 C 12,2 C 11,7 C 97 % 1006,3 hPa 0,0 l/m 0 min 0 min 12 W/m 19,3 km/h (3 Bft) 95,74 %
18.10.2019 08:28 13,1 C 12,2 C 11,7 C 97 % 1006,3 hPa 0,0 l/m 0 min 0 min 14 W/m 6,4 km/h (2 Bft) 95,74 %
18.10.2019 08:30 13,1 C 12,2 C 11,7 C 97 % 1006,3 hPa 0,0 l/m 0 min 0 min 18 W/m 6,4 km/h (2 Bft) 95,74 %
18.10.2019 08:32 13,1 C 12,2 C 11,7 C 97 % 1006,3 hPa 0,0 l/m 0 min 0 min 22 W/m 16,1 km/h (3 Bft) 95,65 %
18.10.2019 08:34 13,2 C 12,2 C 11,7 C 97 % 1006,3 hPa 0,0 l/m 0 min 0 min 26 W/m 16,1 km/h (3 Bft) 97,87 %
18.10.2019 08:36 13,2 C 12,2 C 11,7 C 97 % 1006,3 hPa 0,0 l/m 0 min 0 min 28 W/m 12,9 km/h (3 Bft) 97,87 %
18.10.2019 08:38 13,2 C 12,2 C 11,7 C 97 % 1006,2 hPa 0,0 l/m 0 min 0 min 28 W/m 12,9 km/h (3 Bft) 97,87 %
18.10.2019 08:40 13,2 C 12,2 C 11,7 C 97 % 1006,3 hPa 0,0 l/m 0 min 0 min 26 W/m 12,9 km/h (3 Bft) 97,87 %
18.10.2019 08:42 13,2 C 12,2 C 11,7 C 97 % 1006,1 hPa 0,0 l/m 0 min 0 min 26 W/m 16,1 km/h (3 Bft) 97,87 %
18.10.2019 08:44 13,3 C 12,2 C 11,7 C 97 % 1006,3 hPa 0,0 l/m 0 min 0 min 25 W/m 19,3 km/h (3 Bft) 95,65 %
18.10.2019 08:46 13,3 C 12,2 C 11,7 C 97 % 1006,2 hPa 0,0 l/m 0 min 0 min 26 W/m 12,9 km/h (3 Bft) 97,87 %
18.10.2019 08:48 13,3 C 12,2 C 11,7 C 97 % 1006,2 hPa 0,0 l/m 0 min 0 min 27 W/m 12,9 km/h (3 Bft) 97,87 %
18.10.2019 08:50 13,3 C 12,2 C 11,7 C 97 % 1006,2 hPa 0,0 l/m 0 min 0 min 23 W/m 16,1 km/h (3 Bft) 97,87 %
18.10.2019 08:52 13,4 C 12,2 C 11,7 C 97 % 1006,2 hPa 0,0 l/m 0 min 0 min 20 W/m 12,9 km/h (3 Bft) 97,87 %
18.10.2019 08:54 13,4 C 12,2 C 11,7 C 97 % 1006,2 hPa 0,0 l/m 0 min 0 min 21 W/m 12,9 km/h (3 Bft) 97,83 %
18.10.2019 08:56 13,4 C 12,2 C 11,7 C 96 % 1006,2 hPa 0,0 l/m 0 min 0 min 21 W/m 16,1 km/h (3 Bft) 97,87 %
18.10.2019 08:58 13,4 C 12,2 C 11,7 C 96 % 1006,2 hPa 0,0 l/m 0 min 0 min 21 W/m 12,9 km/h (3 Bft) 95,74 %
18.10.2019 09:00 13,4 C 12,2 C 11,7 C 96 % 1006,2 hPa 0,0 l/m 0 min 0 min 20 W/m 16,1 km/h (3 Bft) 97,87 %
18.10.2019 09:02 13,4 C 12,2 C 11,7 C 96 % 1006,2 hPa 0,0 l/m 0 min 0 min 19 W/m 12,9 km/h (3 Bft) 95,74 %
18.10.2019 09:04 13,4 C 12,2 C 11,7 C 96 % 1006,1 hPa 0,0 l/m 0 min 0 min 20 W/m 12,9 km/h (3 Bft) 97,87 %
18.10.2019 09:06 13,5 C 12,2 C 11,7 C 96 % 1006,1 hPa 0,0 l/m 0 min 0 min 23 W/m 12,9 km/h (3 Bft) 95,65 %
18.10.2019 09:08 13,5 C 12,8 C 11,7 C 96 % 1006,1 hPa 0,0 l/m 0 min 0 min 25 W/m 16,1 km/h (3 Bft) 95,74 %
18.10.2019 09:10 13,5 C 12,8 C 11,7 C 96 % 1006,1 hPa 0,0 l/m 0 min 0 min 25 W/m 16,1 km/h (3 Bft) 100,00 %
18.10.2019 09:12 13,5 C 12,8 C 11,7 C 96 % 1006,1 hPa 0,0 l/m 0 min 0 min 28 W/m 12,9 km/h (3 Bft) 100,00 %
18.10.2019 09:14 13,6 C 12,8 C 11,7 C 96 % 1006,1 hPa 0,0 l/m 0 min 0 min 38 W/m 12,9 km/h (3 Bft) 97,87 %
18.10.2019 09:16 13,6 C 12,8 C 11,7 C 96 % 1006,0 hPa 0,0 l/m 0 min 0 min 48 W/m 12,9 km/h (3 Bft) 100,00 %
18.10.2019 09:18 13,6 C 12,8 C 11,7 C 96 % 1006,0 hPa 0,0 l/m 0 min 0 min 47 W/m 12,9 km/h (3 Bft) 100,00 %
18.10.2019 09:20 13,6 C 12,8 C 11,7 C 96 % 1006,0 hPa 0,0 l/m 0 min 0 min 40 W/m 16,1 km/h (3 Bft) 100,00 %
18.10.2019 09:22 13,6 C 12,8 C 11,7 C 95 % 1006,0 hPa 0,0 l/m 0 min 0 min 30 W/m 12,9 km/h (3 Bft) 100,00 %
18.10.2019 09:24 13,6 C 12,8 C 11,7 C 95 % 1006,0 hPa 0,0 l/m 0 min 0 min 22 W/m 16,1 km/h (3 Bft) 100,00 %
18.10.2019 09:26 13,6 C 12,8 C 11,7 C 95 % 1005,9 hPa 0,0 l/m 0 min 0 min 23 W/m 19,3 km/h (3 Bft) 97,87 %
18.10.2019 09:28 13,6 C 12,8 C 11,7 C 95 % 1006,1 hPa 0,0 l/m 0 min 0 min 28 W/m 16,1 km/h (3 Bft) 100,00 %
18.10.2019 09:30 13,7 C 12,8 C 11,7 C 95 % 1006,0 hPa 0,0 l/m 0 min 0 min 38 W/m 16,1 km/h (3 Bft) 100,00 %
18.10.2019 09:32 13,7 C 12,8 C 11,7 C 95 % 1006,0 hPa 0,0 l/m 0 min 0 min 38 W/m 9,7 km/h (2 Bft) 100,00 %
18.10.2019 09:34 13,7 C 12,8 C 12,2 C 95 % 1006,0 hPa 0,0 l/m 0 min 0 min 54 W/m 12,9 km/h (3 Bft) 100,00 %
18.10.2019 09:36 13,7 C 12,8 C 12,2 C 95 % 1006,0 hPa 0,0 l/m 0 min 0 min 72 W/m 12,9 km/h (3 Bft) 97,87 %
18.10.2019 09:38 13,7 C 12,8 C 12,2 C 95 % 1005,9 hPa 0,0 l/m 0 min 0 min 72 W/m 16,1 km/h (3 Bft) 100,00 %
18.10.2019 09:40 13,7 C 13,3 C 12,2 C 95 % 1005,9 hPa 0,0 l/m 0 min 0 min 82 W/m 6,4 km/h (2 Bft) 100,00 %
18.10.2019 09:42 13,8 C 13,3 C 12,2 C 95 % 1005,9 hPa 0,0 l/m 0 min 0 min 81 W/m 12,9 km/h (3 Bft) 100,00 %
18.10.2019 09:44 13,8 C 13,3 C 12,2 C 95 % 1005,8 hPa 0,0 l/m 0 min 0 min 69 W/m 22,5 km/h (4 Bft) 100,00 %
18.10.2019 09:46 13,8 C 13,3 C 12,2 C 94 % 1005,9 hPa 0,0 l/m 0 min 0 min 68 W/m 16,1 km/h (3 Bft) 100,00 %
18.10.2019 09:48 13,8 C 13,3 C 12,2 C 94 % 1005,8 hPa 0,0 l/m 0 min 0 min 70 W/m 16,1 km/h (3 Bft) 100,00 %
18.10.2019 09:50 13,8 C 13,3 C 12,2 C 94 % 1005,9 hPa 0,0 l/m 0 min 0 min 65 W/m 16,1 km/h (3 Bft) 100,00 %
18.10.2019 09:52 13,9 C 13,3 C 12,2 C 94 % 1005,8 hPa 0,0 l/m 0 min 0 min 54 W/m 19,3 km/h (3 Bft) 100,00 %
18.10.2019 09:54 13,9 C 13,3 C 12,2 C 94 % 1005,8 hPa 0,0 l/m 0 min 0 min 78 W/m 16,1 km/h (3 Bft) 100,00 %
18.10.2019 09:56 13,9 C 13,9 C 12,2 C 94 % 1005,8 hPa 0,0 l/m 2 min 0 min 201 W/m 22,5 km/h (4 Bft) 100,00 %
18.10.2019 09:58 14,0 C 13,9 C 12,8 C 93 % 1005,8 hPa 0,0 l/m 2 min 0 min 134 W/m 19,3 km/h (3 Bft) 100,00 %
18.10.2019 10:00 14,1 C 13,9 C 12,8 C 93 % 1005,7 hPa 0,0 l/m 0 min 0 min 108 W/m 19,3 km/h (3 Bft) 100,00 %
18.10.2019 10:02 14,1 C 13,9 C 13,3 C 93 % 1005,7 hPa 0,0 l/m 0 min 0 min 126 W/m 19,3 km/h (3 Bft) 100,00 %
18.10.2019 10:04 14,2 C 13,9 C 13,9 C 93 % 1005,6 hPa 0,0 l/m 0 min 0 min 134 W/m 22,5 km/h (4 Bft) 100,00 %
18.10.2019 10:06 14,3 C 13,9 C 13,9 C 93 % 1005,6 hPa 0,0 l/m 0 min 0 min 126 W/m 19,3 km/h (3 Bft) 100,00 %
18.10.2019 10:08 14,3 C 14,4 C 13,9 C 92 % 1005,6 hPa 0,0 l/m 2 min 0 min 159 W/m 16,1 km/h (3 Bft) 97,87 %
18.10.2019 10:10 14,3 C 15,0 C 14,4 C 92 % 1005,6 hPa 0,0 l/m 2 min 0 min 162 W/m 19,3 km/h (3 Bft) 97,87 %
18.10.2019 10:12 14,3 C 15,6 C 15,6 C 92 % 1005,6 hPa 0,0 l/m 2 min 0 min 203 W/m 22,5 km/h (4 Bft) 95,74 %
18.10.2019 10:14 14,4 C 15,6 C 15,6 C 92 % 1005,5 hPa 0,0 l/m 2 min 0 min 225 W/m 19,3 km/h (3 Bft) 97,87 %
18.10.2019 10:16 14,5 C 15,0 C 15,0 C 91 % 1005,5 hPa 0,0 l/m 0 min 0 min 122 W/m 35,4 km/h (5 Bft) 97,83 %
18.10.2019 10:18 14,6 C 14,4 C 14,4 C 91 % 1005,4 hPa 0,0 l/m 0 min 0 min 123 W/m 22,5 km/h (4 Bft) 97,87 %
18.10.2019 10:20 14,7 C 14,4 C 14,4 C 90 % 1005,4 hPa 0,0 l/m 0 min 0 min 143 W/m 25,7 km/h (4 Bft) 97,87 %
18.10.2019 10:22 14,8 C 15,0 C 14,4 C 90 % 1005,3 hPa 0,0 l/m 0 min 0 min 126 W/m 12,9 km/h (3 Bft) 97,87 %
18.10.2019 10:24 14,8 C 15,6 C 14,4 C 90 % 1005,4 hPa 0,0 l/m 2 min 0 min 279 W/m 29,0 km/h (5 Bft) 97,87 %
18.10.2019 10:26 14,9 C 15,0 C 14,4 C 89 % 1005,2 hPa 0,0 l/m 2 min 0 min 173 W/m 19,3 km/h (3 Bft) 97,87 %
18.10.2019 10:28 15,1 C 15,0 C 14,4 C 89 % 1005,2 hPa 0,0 l/m 0 min 0 min 132 W/m 22,5 km/h (4 Bft) 95,65 %
18.10.2019 10:30 15,1 C 15,6 C 14,4 C 88 % 1005,2 hPa 0,0 l/m 0 min 0 min 147 W/m 22,5 km/h (4 Bft) 93,62 %
18.10.2019 10:32 15,2 C 17,2 C 15,0 C 88 % 1005,1 hPa 0,0 l/m 2 min 0 min 197 W/m 22,5 km/h (4 Bft) 97,87 %
18.10.2019 10:34 15,3 C 17,2 C 15,0 C 87 % 1005,1 hPa 0,0 l/m 2 min 0 min 381 W/m 22,5 km/h (4 Bft) 97,87 %
18.10.2019 10:36 15,4 C 16,7 C 15,0 C 87 % 1005,1 hPa 0,0 l/m 2 min 0 min 171 W/m 35,4 km/h (5 Bft) 97,87 %
18.10.2019 10:38 15,5 C 16,7 C 15,0 C 86 % 1005,0 hPa 0,0 l/m 0 min 0 min 156 W/m 35,4 km/h (5 Bft) 95,74 %
18.10.2019 10:40 15,6 C 16,1 C 15,0 C 86 % 1004,9 hPa 0,0 l/m 0 min 0 min 163 W/m 25,7 km/h (4 Bft) 95,65 %
18.10.2019 10:42 15,7 C 16,1 C 15,0 C 85 % 1004,9 hPa 0,0 l/m 0 min 0 min 141 W/m 22,5 km/h (4 Bft) 97,87 %
18.10.2019 10:44 15,7 C 16,1 C 15,0 C 85 % 1004,9 hPa 0,0 l/m 0 min 0 min 141 W/m 22,5 km/h (4 Bft) 97,87 %
18.10.2019 10:46 15,8 C 16,1 C 15,0 C 85 % 1004,9 hPa 0,0 l/m 0 min 0 min 123 W/m 25,7 km/h (4 Bft) 95,74 %
18.10.2019 10:48 15,8 C 16,1 C 15,0 C 85 % 1004,8 hPa 0,0 l/m 0 min 0 min 113 W/m 22,5 km/h (4 Bft) 97,87 %
18.10.2019 10:50 15,8 C 15,6 C 15,0 C 84 % 1004,7 hPa 0,0 l/m 0 min 0 min 111 W/m 22,5 km/h (4 Bft) 97,87 %
18.10.2019 10:52 15,9 C 16,1 C 15,0 C 84 % 1004,8 hPa 0,0 l/m 0 min 0 min 140 W/m 22,5 km/h (4 Bft) 95,65 %
18.10.2019 10:54 15,9 C 16,1 C 15,0 C 84 % 1004,8 hPa 0,0 l/m 0 min 0 min 145 W/m 38,6 km/h (5 Bft) 95,74 %
18.10.2019 10:56 15,9 C 16,1 C 15,0 C 84 % 1004,7 hPa 0,0 l/m 0 min 0 min 157 W/m 22,5 km/h (4 Bft) 97,87 %
18.10.2019 10:58 16,0 C 16,1 C 15,0 C 84 % 1004,7 hPa 0,0 l/m 0 min 0 min 149 W/m 29,0 km/h (5 Bft) 97,87 %
18.10.2019 11:00 16,1 C 16,7 C 15,0 C 84 % 1004,7 hPa 0,0 l/m 0 min 0 min 187 W/m 22,5 km/h (4 Bft) 95,74 %
18.10.2019 11:02 16,1 C 18,3 C 15,6 C 84 % 1004,7 hPa 0,0 l/m 2 min 0 min 209 W/m 35,4 km/h (5 Bft) 97,83 %
18.10.2019 11:04 16,2 C 19,4 C 16,1 C 84 % 1004,6 hPa 0,0 l/m 2 min 0 min 516 W/m 25,7 km/h (4 Bft) 97,87 %
18.10.2019 11:06 16,3 C 18,9 C 16,1 C 84 % 1004,6 hPa 0,0 l/m 2 min 0 min 333 W/m 38,6 km/h (5 Bft) 97,87 %
18.10.2019 11:08 16,4 C 20,0 C 16,7 C 84 % 1004,6 hPa 0,0 l/m 2 min 0 min 462 W/m 35,4 km/h (5 Bft) 97,87 %
18.10.2019 11:10 16,5 C 18,9 C 16,1 C 84 % 1004,6 hPa 0,0 l/m 2 min 0 min 527 W/m 32,2 km/h (5 Bft) 97,87 %
18.10.2019 11:12 16,6 C 17,2 C 16,1 C 83 % 1004,6 hPa 0,0 l/m 0 min 0 min 126 W/m 29,0 km/h (5 Bft) 97,87 %
18.10.2019 11:14 16,6 C 17,2 C 15,6 C 83 % 1004,5 hPa 0,0 l/m 0 min 0 min 148 W/m 22,5 km/h (4 Bft) 97,83 %
18.10.2019 11:16 16,7 C 16,7 C 15,6 C 82 % 1004,5 hPa 0,0 l/m 0 min 0 min 168 W/m 29,0 km/h (5 Bft) 97,87 %
18.10.2019 11:18 16,7 C 16,7 C 15,6 C 82 % 1004,4 hPa 0,0 l/m 0 min 0 min 155 W/m 25,7 km/h (4 Bft) 97,87 %
18.10.2019 11:20 16,7 C 16,7 C 15,6 C 82 % 1004,4 hPa 0,0 l/m 0 min 0 min 156 W/m 29,0 km/h (5 Bft) 93,62 %
18.10.2019 11:22 16,7 C 16,7 C 15,6 C 82 % 1004,3 hPa 0,0 l/m 0 min 0 min 131 W/m 32,2 km/h (5 Bft) 95,74 %
18.10.2019 11:24 16,7 C 16,1 C 15,6 C 82 % 1004,3 hPa 0,0 l/m 0 min 0 min 104 W/m 25,7 km/h (4 Bft) 95,74 %
18.10.2019 11:26 16,7 C 16,1 C 15,6 C 81 % 1004,3 hPa 0,0 l/m 0 min 0 min 101 W/m 25,7 km/h (4 Bft) 93,48 %
18.10.2019 11:28 16,7 C 16,1 C 15,0 C 81 % 1004,2 hPa 0,0 l/m 0 min 0 min 87 W/m 22,5 km/h (4 Bft) 95,74 %
18.10.2019 11:30 16,7 C 15,6 C 15,0 C 81 % 1004,1 hPa 0,0 l/m 0 min 0 min 69 W/m 38,6 km/h (5 Bft) 95,74 %
18.10.2019 11:32 16,6 C 15,6 C 15,0 C 81 % 1004,1 hPa 0,0 l/m 0 min 0 min 55 W/m 38,6 km/h (5 Bft) 95,74 %
18.10.2019 11:34 16,6 C 15,6 C 15,0 C 81 % 1004,1 hPa 0,0 l/m 0 min 0 min 71 W/m 25,7 km/h (4 Bft) 93,62 %
18.10.2019 11:36 16,6 C 15,6 C 15,0 C 81 % 1004,2 hPa 0,0 l/m 0 min 2 min 82 W/m 29,0 km/h (5 Bft) 93,62 %
18.10.2019 11:38 16,6 C 13,9 C 13,3 C 82 % 1004,2 hPa 0,0 l/m 0 min 2 min 82 W/m 29,0 km/h (5 Bft) 95,65 %
18.10.2019 11:40 16,5 C 13,3 C 12,8 C 82 % 1004,2 hPa 0,0 l/m 0 min 2 min 86 W/m 35,4 km/h (5 Bft) 93,62 %
18.10.2019 11:42 16,4 C 13,3 C 12,8 C 83 % 1004,4 hPa 0,0 l/m 0 min 2 min 72 W/m 32,2 km/h (5 Bft) 95,74 %
18.10.2019 11:44 16,4 C 12,8 C 12,2 C 84 % 1004,4 hPa 0,2 l/m 0 min 2 min 53 W/m 25,7 km/h (4 Bft) 95,74 %
18.10.2019 11:46 16,3 C 12,2 C 12,2 C 84 % 1004,6 hPa 0,2 l/m 0 min 2 min 33 W/m 45,1 km/h (6 Bft) 95,74 %
18.10.2019 11:48 16,2 C 12,2 C 11,7 C 85 % 1005,2 hPa 0,6 l/m 0 min 2 min 19 W/m 38,6 km/h (5 Bft) 97,83 %
18.10.2019 11:50 15,9 C 11,7 C 11,7 C 85 % 1005,4 hPa 0,6 l/m 0 min 2 min 13 W/m 22,5 km/h (4 Bft) 97,87 %
18.10.2019 11:52 15,1 C 10,0 C 10,0 C 83 % 1005,7 hPa 0,8 l/m 0 min 2 min 11 W/m 38,6 km/h (5 Bft) 97,87 %
18.10.2019 11:54 14,3 C 9,4 C 9,4 C 82 % 1005,6 hPa 0,8 l/m 0 min 2 min 19 W/m 32,2 km/h (5 Bft) 97,87 %
18.10.2019 11:56 13,7 C 9,4 C 9,4 C 83 % 1005,6 hPa 0,2 l/m 0 min 2 min 33 W/m 32,2 km/h (5 Bft) 97,87 %
18.10.2019 11:58 13,4 C 9,4 C 9,4 C 84 % 1005,6 hPa 0,2 l/m 0 min 2 min 41 W/m 22,5 km/h (4 Bft) 100,00 %
18.10.2019 12:00 13,1 C 9,4 C 9,4 C 86 % 1005,6 hPa 0,0 l/m 0 min 2 min 46 W/m 35,4 km/h (5 Bft) 97,83 %
18.10.2019 12:02 12,9 C 9,4 C 9,4 C 86 % 1005,4 hPa 0,0 l/m 0 min 2 min 52 W/m 16,1 km/h (3 Bft) 95,74 %
18.10.2019 12:04 12,6 C 9,4 C 9,4 C 87 % 1005,4 hPa 0,0 l/m 0 min 2 min 53 W/m 29,0 km/h (5 Bft) 97,87 %
18.10.2019 12:08 12,2 C 10,0 C 9,4 C 89 % 1005,4 hPa 0,2 l/m 0 min 4 min 53 W/m 19,3 km/h (3 Bft) 97,87 %
18.10.2019 12:10 12,2 C 10,0 C 9,4 C 89 % 1005,4 hPa 0,0 l/m 0 min 2 min 66 W/m 19,3 km/h (3 Bft) 97,87 %
18.10.2019 12:12 12,1 C 10,0 C 9,4 C 90 % 1005,5 hPa 0,0 l/m 0 min 2 min 52 W/m 16,1 km/h (3 Bft) 97,83 %
18.10.2019 12:14 12,0 C 10,0 C 10,0 C 90 % 1005,4 hPa 0,0 l/m 0 min 2 min 54 W/m 16,1 km/h (3 Bft) 97,87 %
18.10.2019 12:16 11,9 C 10,0 C 10,0 C 91 % 1005,4 hPa 0,0 l/m 0 min 2 min 58 W/m 29,0 km/h (5 Bft) 97,87 %
18.10.2019 12:18 11,9 C 10,0 C 10,0 C 91 % 1005,5 hPa 0,0 l/m 0 min 2 min 39 W/m 22,5 km/h (4 Bft) 100,00 %
18.10.2019 12:20 11,8 C 10,0 C 9,4 C 91 % 1005,5 hPa 0,0 l/m 0 min 2 min 27 W/m 19,3 km/h (3 Bft) 100,00 %
18.10.2019 12:22 11,8 C 10,0 C 9,4 C 91 % 1005,4 hPa 0,0 l/m 0 min 2 min 27 W/m 25,7 km/h (4 Bft) 100,00 %
18.10.2019 12:24 11,8 C 10,0 C 9,4 C 91 % 1005,4 hPa 0,0 l/m 0 min 2 min 30 W/m 25,7 km/h (4 Bft) 100,00 %
18.10.2019 12:26 11,8 C 10,0 C 9,4 C 92 % 1005,4 hPa 0,2 l/m 0 min 2 min 34 W/m 22,5 km/h (4 Bft) 97,87 %
18.10.2019 12:28 11,7 C 10,0 C 9,4 C 92 % 1005,4 hPa 0,0 l/m 0 min 2 min 55 W/m 19,3 km/h (3 Bft) 100,00 %
18.10.2019 12:30 11,7 C 10,0 C 9,4 C 92 % 1005,4 hPa 0,2 l/m 0 min 2 min 101 W/m 29,0 km/h (5 Bft) 100,00 %
18.10.2019 12:32 11,7 C 10,0 C 9,4 C 92 % 1005,4 hPa 0,0 l/m 0 min 2 min 122 W/m 22,5 km/h (4 Bft) 97,87 %
18.10.2019 12:34 11,7 C 10,0 C 9,4 C 92 % 1005,5 hPa 0,0 l/m 0 min 2 min 125 W/m 19,3 km/h (3 Bft) 100,00 %
18.10.2019 12:36 11,7 C 10,6 C 10,0 C 92 % 1005,4 hPa 0,0 l/m 0 min 2 min 184 W/m 22,5 km/h (4 Bft) 100,00 %
18.10.2019 12:38 11,7 C 10,6 C 10,0 C 93 % 1005,5 hPa 0,0 l/m 2 min 2 min 247 W/m 32,2 km/h (5 Bft) 100,00 %
18.10.2019 12:40 11,7 C 10,6 C 10,0 C 93 % 1005,5 hPa 0,0 l/m 2 min 2 min 246 W/m 32,2 km/h (5 Bft) 97,87 %
18.10.2019 12:42 11,7 C 10,6 C 10,0 C 93 % 1005,5 hPa 0,0 l/m 0 min 2 min 175 W/m 29,0 km/h (5 Bft) 93,62 %
18.10.2019 12:44 11,7 C 10,6 C 10,0 C 93 % 1005,1 hPa 0,0 l/m 0 min 2 min 148 W/m 35,4 km/h (5 Bft) 97,87 %
18.10.2019 12:46 11,7 C 10,6 C 10,0 C 93 % 1005,3 hPa 0,0 l/m 0 min 2 min 129 W/m 29,0 km/h (5 Bft) 95,74 %
18.10.2019 12:48 11,7 C 10,6 C 10,0 C 93 % 1005,3 hPa 0,0 l/m 0 min 2 min 137 W/m 25,7 km/h (4 Bft) 95,65 %
18.10.2019 12:50 11,7 C 10,6 C 10,0 C 93 % 1005,0 hPa 0,0 l/m 0 min 2 min 142 W/m 19,3 km/h (3 Bft) 95,74 %
18.10.2019 12:52 11,8 C 10,6 C 10,0 C 93 % 1005,0 hPa 0,0 l/m 0 min 0 min 108 W/m 19,3 km/h (3 Bft) 97,87 %
18.10.2019 12:54 11,8 C 10,6 C 10,0 C 93 % 1005,2 hPa 0,0 l/m 0 min 2 min 90 W/m 19,3 km/h (3 Bft) 97,87 %
18.10.2019 12:56 11,7 C 10,6 C 10,0 C 93 % 1005,2 hPa 0,0 l/m 0 min 0 min 92 W/m 29,0 km/h (5 Bft) 97,87 %
18.10.2019 12:58 11,8 C 10,6 C 10,0 C 93 % 1005,4 hPa 0,0 l/m 0 min 0 min 80 W/m 19,3 km/h (3 Bft) 97,83 %
18.10.2019 13:00 11,7 C 10,6 C 10,0 C 93 % 1005,5 hPa 0,0 l/m 0 min 0 min 59 W/m 19,3 km/h (3 Bft) 97,87 %
18.10.2019 13:02 11,7 C 10,6 C 10,0 C 93 % 1005,4 hPa 0,0 l/m 0 min 0 min 47 W/m 25,7 km/h (4 Bft) 97,87 %
18.10.2019 13:04 11,7 C 10,6 C 10,0 C 93 % 1005,5 hPa 0,0 l/m 0 min 0 min 51 W/m 19,3 km/h (3 Bft) 97,87 %
18.10.2019 13:06 11,7 C 10,6 C 10,0 C 93 % 1005,7 hPa 0,0 l/m 0 min 0 min 62 W/m 22,5 km/h (4 Bft) 95,74 %
18.10.2019 13:08 11,7 C 10,6 C 10,0 C 93 % 1005,8 hPa 0,0 l/m 0 min 0 min 65 W/m 29,0 km/h (5 Bft) 97,87 %
18.10.2019 13:10 11,7 C 10,6 C 9,4 C 93 % 1005,8 hPa 0,0 l/m 0 min 0 min 58 W/m 19,3 km/h (3 Bft) 97,87 %
18.10.2019 13:12 11,7 C 10,0 C 9,4 C 93 % 1005,5 hPa 0,0 l/m 0 min 0 min 50 W/m 19,3 km/h (3 Bft) 97,83 %
18.10.2019 13:14 11,7 C 10,0 C 9,4 C 92 % 1005,7 hPa 0,0 l/m 0 min 0 min 46 W/m 22,5 km/h (4 Bft) 97,87 %
18.10.2019 13:16 11,6 C 10,6 C 9,4 C 92 % 1005,8 hPa 0,0 l/m 0 min 0 min 54 W/m 22,5 km/h (4 Bft) 97,87 %
18.10.2019 13:18 11,6 C 10,6 C 10,0 C 92 % 1005,7 hPa 0,0 l/m 0 min 0 min 85 W/m 25,7 km/h (4 Bft) 97,87 %
18.10.2019 13:20 11,6 C 10,6 C 10,0 C 92 % 1005,7 hPa 0,0 l/m 0 min 0 min 115 W/m 35,4 km/h (5 Bft) 95,74 %
18.10.2019 13:22 11,6 C 10,6 C 10,0 C 92 % 1005,9 hPa 0,0 l/m 0 min 0 min 112 W/m 32,2 km/h (5 Bft) 95,65 %
18.10.2019 13:24 11,6 C 10,6 C 10,0 C 91 % 1006,1 hPa 0,0 l/m 0 min 0 min 78 W/m 25,7 km/h (4 Bft) 97,87 %
18.10.2019 13:26 11,6 C 10,6 C 9,4 C 91 % 1006,1 hPa 0,0 l/m 0 min 0 min 55 W/m 35,4 km/h (5 Bft) 97,87 %
18.10.2019 13:28 11,6 C 10,6 C 9,4 C 90 % 1005,7 hPa 0,0 l/m 0 min 0 min 43 W/m 38,6 km/h (5 Bft) 97,87 %
18.10.2019 13:30 11,6 C 10,6 C 9,4 C 90 % 1005,6 hPa 0,0 l/m 0 min 0 min 34 W/m 25,7 km/h (4 Bft) 97,87 %
18.10.2019 13:32 11,6 C 10,6 C 9,4 C 89 % 1005,8 hPa 0,0 l/m 0 min 0 min 27 W/m 25,7 km/h (4 Bft) 100,00 %
18.10.2019 13:34 11,6 C 10,6 C 9,4 C 89 % 1005,3 hPa 0,0 l/m 0 min 0 min 34 W/m 32,2 km/h (5 Bft) 97,83 %
18.10.2019 13:36 11,6 C 10,6 C 9,4 C 88 % 1005,4 hPa 0,0 l/m 0 min 0 min 72 W/m 35,4 km/h (5 Bft) 97,87 %
18.10.2019 13:38 11,7 C 11,1 C 9,4 C 88 % 1005,4 hPa 0,0 l/m 0 min 0 min 167 W/m 25,7 km/h (4 Bft) 100,00 %
18.10.2019 13:40 11,7 C 11,7 C 10,0 C 88 % 1005,7 hPa 0,0 l/m 0 min 0 min 161 W/m 25,7 km/h (4 Bft) 95,74 %
18.10.2019 13:42 11,7 C 12,2 C 10,0 C 88 % 1005,7 hPa 0,0 l/m 0 min 0 min 153 W/m 32,2 km/h (5 Bft) 97,87 %
18.10.2019 13:44 11,8 C 12,2 C 10,0 C 87 % 1006,0 hPa 0,0 l/m 0 min 0 min 135 W/m 25,7 km/h (4 Bft) 95,74 %
18.10.2019 13:46 11,8 C 12,2 C 10,0 C 87 % 1005,9 hPa 0,0 l/m 0 min 0 min 111 W/m 25,7 km/h (4 Bft) 97,83 %
18.10.2019 13:48 11,8 C 11,7 C 10,0 C 87 % 1005,8 hPa 0,0 l/m 0 min 0 min 87 W/m 35,4 km/h (5 Bft) 97,87 %
18.10.2019 13:50 11,9 C 11,7 C 10,0 C 86 % 1005,6 hPa 0,0 l/m 0 min 0 min 108 W/m 35,4 km/h (5 Bft) 97,87 %
18.10.2019 13:52 11,9 C 12,2 C 10,0 C 86 % 1005,5 hPa 0,0 l/m 0 min 0 min 155 W/m 22,5 km/h (4 Bft) 97,87 %
18.10.2019 13:54 12,0 C 12,2 C 10,0 C 86 % 1005,7 hPa 0,0 l/m 0 min 0 min 198 W/m 51,5 km/h (7 Bft) 97,87 %
18.10.2019 13:56 12,1 C 12,8 C 10,0 C 85 % 1005,8 hPa 0,0 l/m 0 min 0 min 202 W/m 35,4 km/h (5 Bft) 97,83 %
18.10.2019 13:58 12,1 C 13,3 C 10,0 C 85 % 1005,9 hPa 0,0 l/m 0 min 0 min 215 W/m 41,8 km/h (6 Bft) 97,87 %
18.10.2019 14:00 12,2 C 13,3 C 10,6 C 86 % 1006,0 hPa 0,0 l/m 2 min 0 min 242 W/m 22,5 km/h (4 Bft) 95,74 %
18.10.2019 14:02 12,3 C 13,3 C 10,6 C 86 % 1005,9 hPa 0,0 l/m 0 min 0 min 209 W/m 16,1 km/h (3 Bft) 97,87 %
18.10.2019 14:04 12,3 C 13,3 C 10,6 C 86 % 1006,0 hPa 0,0 l/m 0 min 0 min 223 W/m 45,1 km/h (6 Bft) 97,87 %
18.10.2019 14:06 12,4 C 13,9 C 10,6 C 84 % 1006,4 hPa 0,0 l/m 2 min 0 min 267 W/m 38,6 km/h (5 Bft) 97,87 %
18.10.2019 14:08 12,5 C 13,3 C 10,6 C 84 % 1006,0 hPa 0,0 l/m 0 min 0 min 173 W/m 25,7 km/h (4 Bft) 95,74 %
18.10.2019 14:10 12,6 C 13,3 C 10,6 C 84 % 1006,0 hPa 0,0 l/m 0 min 0 min 186 W/m 29,0 km/h (5 Bft) 97,83 %
18.10.2019 14:12 12,6 C 14,4 C 10,6 C 83 % 1006,0 hPa 0,0 l/m 2 min 0 min 240 W/m 29,0 km/h (5 Bft) 93,62 %
18.10.2019 14:14 12,7 C 15,0 C 11,1 C 84 % 1005,9 hPa 0,0 l/m 2 min 0 min 254 W/m 22,5 km/h (4 Bft) 97,87 %
18.10.2019 14:16 12,8 C 15,6 C 11,1 C 84 % 1005,9 hPa 0,0 l/m 2 min 0 min 257 W/m 25,7 km/h (4 Bft) 93,62 %
18.10.2019 14:18 12,9 C 16,7 C 11,1 C 84 % 1006,1 hPa 0,0 l/m 2 min 0 min 436 W/m 45,1 km/h (6 Bft) 97,87 %
18.10.2019 14:20 13,1 C 16,1 C 11,1 C 83 % 1005,9 hPa 0,0 l/m 2 min 0 min 615 W/m 25,7 km/h (4 Bft) 97,83 %
18.10.2019 14:22 13,2 C 15,6 C 11,1 C 83 % 1006,0 hPa 0,0 l/m 2 min 0 min 279 W/m 22,5 km/h (4 Bft) 95,74 %
18.10.2019 14:24 13,3 C 16,7 C 11,1 C 83 % 1006,2 hPa 0,0 l/m 2 min 0 min 453 W/m 35,4 km/h (5 Bft) 97,87 %
18.10.2019 14:26 13,4 C 16,7 C 11,1 C 82 % 1006,1 hPa 0,0 l/m 2 min 0 min 651 W/m 32,2 km/h (5 Bft) 97,87 %
18.10.2019 14:28 13,5 C 15,0 C 11,1 C 81 % 1006,4 hPa 0,0 l/m 2 min 0 min 489 W/m 51,5 km/h (7 Bft) 97,87 %
18.10.2019 14:30 13,5 C 15,0 C 11,1 C 81 % 1006,3 hPa 0,0 l/m 0 min 0 min 222 W/m 35,4 km/h (5 Bft) 97,87 %
18.10.2019 14:32 13,6 C 15,6 C 11,1 C 80 % 1006,1 hPa 0,0 l/m 0 min 0 min 220 W/m 35,4 km/h (5 Bft) 95,65 %
18.10.2019 14:34 13,7 C 16,1 C 11,1 C 81 % 1006,4 hPa 0,0 l/m 2 min 0 min 384 W/m 32,2 km/h (5 Bft) 97,87 %
18.10.2019 14:36 13,7 C 16,1 C 11,1 C 80 % 1006,4 hPa 0,0 l/m 2 min 0 min 612 W/m 41,8 km/h (6 Bft) 97,87 %
18.10.2019 14:38 13,7 C 15,6 C 11,1 C 80 % 1006,1 hPa 0,0 l/m 2 min 0 min 608 W/m 32,2 km/h (5 Bft) 97,87 %
18.10.2019 14:40 13,8 C 16,1 C 11,1 C 80 % 1006,3 hPa 0,0 l/m 2 min 0 min 574 W/m 35,4 km/h (5 Bft) 95,74 %
18.10.2019 14:42 13,8 C 16,1 C 11,7 C 80 % 1006,4 hPa 0,0 l/m 2 min 0 min 568 W/m 38,6 km/h (5 Bft) 97,87 %
18.10.2019 14:44 13,9 C 16,7 C 12,2 C 80 % 1006,3 hPa 0,0 l/m 2 min 0 min 543 W/m 29,0 km/h (5 Bft) 97,83 %
18.10.2019 14:46 14,0 C 17,2 C 12,8 C 80 % 1006,2 hPa 0,0 l/m 2 min 0 min 544 W/m 25,7 km/h (4 Bft) 97,87 %
18.10.2019 14:48 14,1 C 16,1 C 12,8 C 79 % 1006,2 hPa 0,0 l/m 2 min 0 min 533 W/m 25,7 km/h (4 Bft) 97,87 %
18.10.2019 14:50 14,1 C 16,7 C 12,8 C 79 % 1006,2 hPa 0,0 l/m 2 min 0 min 534 W/m 32,2 km/h (5 Bft) 97,87 %
18.10.2019 14:52 14,2 C 17,8 C 12,8 C 79 % 1006,3 hPa 0,0 l/m 2 min 0 min 523 W/m 22,5 km/h (4 Bft) 97,87 %
18.10.2019 14:54 14,3 C 17,2 C 13,3 C 78 % 1006,2 hPa 0,0 l/m 2 min 0 min 521 W/m 48,3 km/h (6 Bft) 95,74 %
18.10.2019 14:56 14,3 C 16,1 C 13,3 C 77 % 1006,3 hPa 0,0 l/m 2 min 0 min 499 W/m 48,3 km/h (6 Bft) 97,83 %
18.10.2019 14:58 14,3 C 15,6 C 12,8 C 76 % 1006,2 hPa 0,0 l/m 0 min 0 min 151 W/m 51,5 km/h (7 Bft) 97,87 %
18.10.2019 15:00 14,3 C 16,7 C 12,8 C 76 % 1006,4 hPa 0,0 l/m 2 min 0 min 351 W/m 22,5 km/h (4 Bft) 97,87 %
18.10.2019 15:02 14,3 C 16,7 C 12,8 C 76 % 1006,3 hPa 0,0 l/m 2 min 0 min 504 W/m 16,1 km/h (3 Bft) 97,87 %
18.10.2019 15:04 14,3 C 16,1 C 12,8 C 77 % 1006,3 hPa 0,0 l/m 0 min 0 min 200 W/m 16,1 km/h (3 Bft) 97,87 %
18.10.2019 15:06 14,3 C 16,1 C 13,3 C 77 % 1006,3 hPa 0,0 l/m 0 min 0 min 165 W/m 22,5 km/h (4 Bft) 97,83 %
18.10.2019 15:08 14,3 C 16,7 C 13,3 C 77 % 1006,3 hPa 0,0 l/m 0 min 0 min 176 W/m 25,7 km/h (4 Bft) 97,87 %
18.10.2019 15:10 14,3 C 16,1 C 13,3 C 76 % 1006,3 hPa 0,0 l/m 0 min 0 min 180 W/m 29,0 km/h (5 Bft) 97,87 %
18.10.2019 15:12 14,3 C 17,2 C 13,3 C 76 % 1006,4 hPa 0,0 l/m 2 min 0 min 375 W/m 25,7 km/h (4 Bft) 97,87 %
18.10.2019 15:14 14,4 C 17,8 C 13,3 C 76 % 1006,3 hPa 0,0 l/m 2 min 0 min 472 W/m 19,3 km/h (3 Bft) 95,74 %
18.10.2019 15:16 14,5 C 17,2 C 13,3 C 75 % 1006,5 hPa 0,0 l/m 2 min 0 min 482 W/m 25,7 km/h (4 Bft) 95,74 %
18.10.2019 15:18 14,6 C 17,8 C 13,3 C 75 % 1006,4 hPa 0,0 l/m 2 min 0 min 479 W/m 29,0 km/h (5 Bft) 95,74 %
18.10.2019 15:20 14,6 C 17,2 C 13,3 C 75 % 1006,5 hPa 0,0 l/m 2 min 0 min 488 W/m 32,2 km/h (5 Bft) 95,65 %
18.10.2019 15:22 14,7 C 17,2 C 13,3 C 75 % 1006,5 hPa 0,0 l/m 0 min 0 min 183 W/m 29,0 km/h (5 Bft) 95,74 %
18.10.2019 15:24 14,6 C 15,6 C 13,3 C 74 % 1006,6 hPa 0,0 l/m 2 min 0 min 205 W/m 45,1 km/h (6 Bft) 91,49 %
18.10.2019 15:26 14,6 C 16,7 C 13,3 C 74 % 1006,6 hPa 0,0 l/m 2 min 0 min 385 W/m 45,1 km/h (6 Bft) 97,87 %
18.10.2019 15:28 14,6 C 16,1 C 13,3 C 74 % 1006,6 hPa 0,0 l/m 2 min 0 min 474 W/m 54,7 km/h (7 Bft) 97,87 %
18.10.2019 15:30 14,6 C 16,7 C 13,3 C 74 % 1006,6 hPa 0,0 l/m 2 min 0 min 469 W/m 32,2 km/h (5 Bft) 97,83 %
18.10.2019 15:32 14,6 C 15,6 C 13,3 C 74 % 1006,7 hPa 0,0 l/m 2 min 0 min 469 W/m 32,2 km/h (5 Bft) 97,87 %
18.10.2019 15:34 14,6 C 15,0 C 13,3 C 74 % 1006,8 hPa 0,0 l/m 2 min 0 min 430 W/m 35,4 km/h (5 Bft) 97,87 %
18.10.2019 15:36 14,6 C 16,1 C 13,3 C 74 % 1006,8 hPa 0,0 l/m 2 min 0 min 191 W/m 16,1 km/h (3 Bft) 97,87 %
18.10.2019 15:38 14,6 C 16,7 C 13,3 C 74 % 1006,9 hPa 0,0 l/m 2 min 0 min 416 W/m 32,2 km/h (5 Bft) 97,87 %
18.10.2019 15:40 14,6 C 17,8 C 13,3 C 75 % 1006,9 hPa 0,0 l/m 2 min 0 min 435 W/m 19,3 km/h (3 Bft) 97,87 %
18.10.2019 15:42 14,7 C 17,2 C 13,3 C 75 % 1006,9 hPa 0,0 l/m 2 min 0 min 418 W/m 32,2 km/h (5 Bft) 95,65 %
18.10.2019 15:44 14,7 C 17,8 C 13,3 C 76 % 1006,9 hPa 0,0 l/m 2 min 0 min 385 W/m 19,3 km/h (3 Bft) 97,87 %
18.10.2019 15:46 14,8 C 17,8 C 13,3 C 75 % 1007,0 hPa 0,0 l/m 2 min 0 min 423 W/m 25,7 km/h (4 Bft) 95,74 %
18.10.2019 15:48 14,8 C 17,2 C 13,3 C 74 % 1006,9 hPa 0,0 l/m 2 min 0 min 425 W/m 22,5 km/h (4 Bft) 97,87 %
18.10.2019 15:50 14,8 C 17,2 C 13,3 C 74 % 1006,9 hPa 0,0 l/m 2 min 0 min 445 W/m 22,5 km/h (4 Bft) 97,87 %
18.10.2019 15:52 14,8 C 16,1 C 13,3 C 74 % 1006,9 hPa 0,0 l/m 2 min 0 min 253 W/m 19,3 km/h (3 Bft) 95,74 %
18.10.2019 15:54 14,8 C 15,0 C 13,3 C 74 % 1007,2 hPa 0,0 l/m 0 min 0 min 136 W/m 32,2 km/h (5 Bft) 97,83 %
18.10.2019 15:56 14,8 C 16,7 C 13,3 C 74 % 1007,1 hPa 0,0 l/m 2 min 0 min 258 W/m 16,1 km/h (3 Bft) 100,00 %
18.10.2019 15:58 14,8 C 16,7 C 13,3 C 75 % 1007,1 hPa 0,0 l/m 2 min 0 min 417 W/m 29,0 km/h (5 Bft) 95,74 %
18.10.2019 16:00 14,8 C 17,2 C 13,3 C 75 % 1007,2 hPa 0,0 l/m 2 min 0 min 420 W/m 22,5 km/h (4 Bft) 100,00 %
18.10.2019 16:02 14,8 C 16,7 C 13,3 C 75 % 1007,1 hPa 0,0 l/m 2 min 0 min 415 W/m 19,3 km/h (3 Bft) 100,00 %
18.10.2019 16:04 14,8 C 16,1 C 13,3 C 75 % 1007,3 hPa 0,0 l/m 2 min 0 min 187 W/m 29,0 km/h (5 Bft) 100,00 %
18.10.2019 16:06 14,8 C 15,6 C 13,3 C 75 % 1007,2 hPa 0,0 l/m 2 min 0 min 418 W/m 25,7 km/h (4 Bft) 97,83 %
18.10.2019 16:08 14,8 C 14,4 C 13,3 C 75 % 1007,3 hPa 0,0 l/m 2 min 0 min 166 W/m 38,6 km/h (5 Bft) 100,00 %
18.10.2019 16:10 14,7 C 14,4 C 13,3 C 74 % 1007,3 hPa 0,0 l/m 0 min 0 min 151 W/m 19,3 km/h (3 Bft) 100,00 %
18.10.2019 16:12 14,7 C 14,4 C 12,8 C 75 % 1007,3 hPa 0,0 l/m 0 min 0 min 125 W/m 29,0 km/h (5 Bft) 100,00 %
18.10.2019 16:14 14,6 C 14,4 C 13,3 C 74 % 1007,3 hPa 0,0 l/m 2 min 0 min 157 W/m 32,2 km/h (5 Bft) 100,00 %
18.10.2019 16:16 14,6 C 13,9 C 12,8 C 75 % 1007,3 hPa 0,0 l/m 0 min 0 min 138 W/m 19,3 km/h (3 Bft) 100,00 %
18.10.2019 16:18 14,5 C 13,9 C 12,8 C 75 % 1007,3 hPa 0,0 l/m 0 min 0 min 118 W/m 25,7 km/h (4 Bft) 100,00 %
18.10.2019 16:20 14,3 C 13,9 C 12,8 C 75 % 1007,4 hPa 0,0 l/m 0 min 0 min 103 W/m 25,7 km/h (4 Bft) 100,00 %
18.10.2019 16:22 14,3 C 13,9 C 12,8 C 75 % 1007,4 hPa 0,0 l/m 0 min 0 min 86 W/m 22,5 km/h (4 Bft) 100,00 %
18.10.2019 16:24 14,3 C 13,9 C 12,8 C 75 % 1007,5 hPa 0,0 l/m 0 min 0 min 143 W/m 19,3 km/h (3 Bft) 100,00 %
18.10.2019 16:26 14,3 C 15,6 C 12,8 C 75 % 1007,3 hPa 0,0 l/m 2 min 0 min 184 W/m 22,5 km/h (4 Bft) 100,00 %
18.10.2019 16:28 14,3 C 16,1 C 13,3 C 76 % 1007,5 hPa 0,0 l/m 2 min 0 min 320 W/m 48,3 km/h (6 Bft) 100,00 %
18.10.2019 16:30 14,3 C 15,6 C 13,3 C 74 % 1007,2 hPa 0,0 l/m 2 min 0 min 305 W/m 32,2 km/h (5 Bft) 100,00 %
18.10.2019 16:32 14,3 C 15,6 C 13,3 C 74 % 1007,3 hPa 0,0 l/m 0 min 0 min 132 W/m 22,5 km/h (4 Bft) 100,00 %
18.10.2019 16:34 14,3 C 16,1 C 13,3 C 75 % 1007,4 hPa 0,0 l/m 2 min 0 min 292 W/m 38,6 km/h (5 Bft) 97,87 %
18.10.2019 16:36 14,4 C 16,7 C 13,3 C 75 % 1007,3 hPa 0,0 l/m 2 min 0 min 285 W/m 19,3 km/h (3 Bft) 100,00 %
18.10.2019 16:38 14,4 C 16,7 C 13,3 C 75 % 1007,5 hPa 0,0 l/m 2 min 0 min 274 W/m 22,5 km/h (4 Bft) 95,74 %
18.10.2019 16:40 14,4 C 16,7 C 13,3 C 75 % 1007,3 hPa 0,0 l/m 2 min 0 min 273 W/m 19,3 km/h (3 Bft) 100,00 %
18.10.2019 16:42 14,5 C 16,7 C 13,3 C 74 % 1007,3 hPa 0,0 l/m 2 min 0 min 266 W/m 38,6 km/h (5 Bft) 100,00 %
18.10.2019 16:44 14,5 C 16,1 C 13,3 C 74 % 1007,6 hPa 0,0 l/m 2 min 0 min 262 W/m 32,2 km/h (5 Bft) 100,00 %
18.10.2019 16:46 14,6 C 16,1 C 12,8 C 74 % 1007,6 hPa 0,0 l/m 2 min 0 min 256 W/m 16,1 km/h (3 Bft) 100,00 %
18.10.2019 16:48 14,6 C 16,7 C 12,8 C 74 % 1007,6 hPa 0,0 l/m 2 min 0 min 244 W/m 35,4 km/h (5 Bft) 100,00 %
18.10.2019 16:50 14,6 C 16,1 C 12,8 C 74 % 1007,6 hPa 0,0 l/m 2 min 0 min 246 W/m 32,2 km/h (5 Bft) 100,00 %
18.10.2019 16:52 14,6 C 16,1 C 12,8 C 74 % 1007,7 hPa 0,0 l/m 2 min 0 min 242 W/m 25,7 km/h (4 Bft) 100,00 %
18.10.2019 16:54 14,6 C 15,6 C 12,8 C 74 % 1007,7 hPa 0,0 l/m 2 min 0 min 236 W/m 35,4 km/h (5 Bft) 100,00 %
18.10.2019 16:56 14,6 C 15,6 C 12,8 C 73 % 1007,7 hPa 0,0 l/m 2 min 0 min 230 W/m 29,0 km/h (5 Bft) 100,00 %
18.10.2019 16:58 14,6 C 15,6 C 12,8 C 73 % 1007,9 hPa 0,0 l/m 2 min 0 min 222 W/m 32,2 km/h (5 Bft) 95,74 %
18.10.2019 17:00 14,6 C 15,6 C 12,8 C 73 % 1007,8 hPa 0,0 l/m 2 min 0 min 217 W/m 38,6 km/h (5 Bft) 100,00 %
18.10.2019 17:02 14,6 C 16,1 C 12,8 C 73 % 1007,8 hPa 0,0 l/m 2 min 0 min 208 W/m 32,2 km/h (5 Bft) 100,00 %
18.10.2019 17:04 14,6 C 15,6 C 12,8 C 74 % 1007,7 hPa 0,0 l/m 2 min 0 min 200 W/m 25,7 km/h (4 Bft) 100,00 %
18.10.2019 17:06 14,6 C 15,0 C 12,8 C 74 % 1007,8 hPa 0,0 l/m 2 min 0 min 175 W/m 16,1 km/h (3 Bft) 95,74 %
18.10.2019 17:08 14,5 C 14,4 C 12,8 C 74 % 1007,8 hPa 0,0 l/m 2 min 0 min 179 W/m 19,3 km/h (3 Bft) 97,87 %
18.10.2019 17:10 14,5 C 13,9 C 12,8 C 74 % 1007,8 hPa 0,0 l/m 2 min 0 min 133 W/m 22,5 km/h (4 Bft) 97,87 %
18.10.2019 17:12 14,4 C 13,9 C 12,8 C 74 % 1008,0 hPa 0,0 l/m 0 min 0 min 85 W/m 25,7 km/h (4 Bft) 100,00 %
18.10.2019 17:14 14,4 C 13,9 C 12,8 C 74 % 1007,9 hPa 0,0 l/m 0 min 0 min 83 W/m 19,3 km/h (3 Bft) 95,65 %
18.10.2019 17:16 14,3 C 13,9 C 12,8 C 74 % 1008,0 hPa 0,0 l/m 0 min 0 min 88 W/m 22,5 km/h (4 Bft) 97,87 %
18.10.2019 17:18 14,3 C 13,9 C 12,8 C 74 % 1008,0 hPa 0,0 l/m 0 min 0 min 71 W/m 25,7 km/h (4 Bft) 95,74 %
18.10.2019 17:20 14,3 C 13,9 C 12,8 C 74 % 1008,0 hPa 0,0 l/m 0 min 0 min 71 W/m 22,5 km/h (4 Bft) 97,87 %
18.10.2019 17:22 14,3 C 13,3 C 12,8 C 75 % 1007,9 hPa 0,0 l/m 0 min 0 min 61 W/m 29,0 km/h (5 Bft) 95,74 %
18.10.2019 17:24 14,3 C 13,3 C 12,8 C 75 % 1008,0 hPa 0,0 l/m 0 min 0 min 62 W/m 16,1 km/h (3 Bft) 95,74 %
18.10.2019 17:26 14,3 C 13,3 C 12,8 C 75 % 1008,0 hPa 0,0 l/m 0 min 0 min 76 W/m 16,1 km/h (3 Bft) 95,65 %
18.10.2019 17:28 14,3 C 13,3 C 12,8 C 75 % 1008,0 hPa 0,0 l/m 0 min 0 min 65 W/m 25,7 km/h (4 Bft) 95,74 %
18.10.2019 17:30 14,3 C 13,3 C 12,8 C 75 % 1008,0 hPa 0,0 l/m 0 min 0 min 49 W/m 22,5 km/h (4 Bft) 93,62 %
18.10.2019 17:32 14,2 C 13,3 C 12,8 C 75 % 1008,1 hPa 0,0 l/m 0 min 0 min 54 W/m 29,0 km/h (5 Bft) 95,74 %
18.10.2019 17:34 14,2 C 13,3 C 12,8 C 75 % 1008,1 hPa 0,0 l/m 0 min 0 min 54 W/m 19,3 km/h (3 Bft) 95,74 %
18.10.2019 17:36 14,2 C 13,3 C 12,8 C 75 % 1008,2 hPa 0,0 l/m 0 min 0 min 34 W/m 32,2 km/h (5 Bft) 95,74 %
18.10.2019 17:38 14,1 C 13,3 C 12,8 C 75 % 1008,1 hPa 0,0 l/m 0 min 0 min 24 W/m 29,0 km/h (5 Bft) 95,65 %
18.10.2019 17:40 14,1 C 13,3 C 12,8 C 75 % 1008,3 hPa 0,0 l/m 0 min 0 min 24 W/m 29,0 km/h (5 Bft) 95,74 %
18.10.2019 17:42 14,1 C 13,3 C 12,8 C 75 % 1008,3 hPa 0,0 l/m 0 min 0 min 21 W/m 29,0 km/h (5 Bft) 95,74 %
18.10.2019 17:44 14,1 C 13,3 C 12,8 C 75 % 1008,3 hPa 0,0 l/m 0 min 0 min 23 W/m 25,7 km/h (4 Bft) 93,62 %
18.10.2019 17:46 14,1 C 13,3 C 12,8 C 75 % 1008,3 hPa 0,0 l/m 0 min 0 min 35 W/m 22,5 km/h (4 Bft) 93,62 %
18.10.2019 17:48 14,1 C 13,3 C 12,8 C 75 % 1008,2 hPa 0,0 l/m 0 min 0 min 44 W/m 25,7 km/h (4 Bft) 93,62 %
18.10.2019 17:50 14,1 C 13,3 C 12,8 C 75 % 1008,3 hPa 0,0 l/m 2 min 0 min 57 W/m 12,9 km/h (3 Bft) 93,48 %
18.10.2019 17:52 14,1 C 13,3 C 12,8 C 75 % 1008,3 hPa 0,0 l/m 0 min 0 min 48 W/m 29,0 km/h (5 Bft) 93,62 %
18.10.2019 17:54 14,1 C 13,3 C 12,8 C 75 % 1008,2 hPa 0,0 l/m 0 min 0 min 34 W/m 22,5 km/h (4 Bft) 91,49 %
18.10.2019 17:56 14,1 C 13,3 C 12,8 C 75 % 1008,2 hPa 0,0 l/m 0 min 0 min 30 W/m 25,7 km/h (4 Bft) 93,62 %
18.10.2019 17:58 14,0 C 13,3 C 12,8 C 75 % 1008,2 hPa 0,0 l/m 0 min 0 min 28 W/m 25,7 km/h (4 Bft) 93,62 %
18.10.2019 18:00 14,0 C 13,3 C 12,2 C 75 % 1008,3 hPa 0,0 l/m 0 min 0 min 26 W/m 19,3 km/h (3 Bft) 89,36 %
18.10.2019 18:02 13,9 C 13,3 C 12,2 C 75 % 1008,3 hPa 0,0 l/m 0 min 0 min 25 W/m 25,7 km/h (4 Bft) 91,30 %
18.10.2019 18:04 13,9 C 12,8 C 12,2 C 75 % 1008,2 hPa 0,0 l/m 0 min 0 min 23 W/m 19,3 km/h (3 Bft) 93,62 %
18.10.2019 18:08 13,9 C 12,8 C 12,2 C 75 % 1008,2 hPa 0,0 l/m 0 min 0 min 21 W/m 19,3 km/h (3 Bft) 94,68 %
18.10.2019 18:10 13,9 C 12,8 C 12,2 C 75 % 1008,3 hPa 0,0 l/m 0 min 0 min 19 W/m 22,5 km/h (4 Bft) 95,74 %
18.10.2019 18:12 13,9 C 12,8 C 12,2 C 75 % 1008,4 hPa 0,0 l/m 0 min 0 min 18 W/m 22,5 km/h (4 Bft) 97,87 %
18.10.2019 18:14 13,8 C 12,8 C 12,2 C 75 % 1008,4 hPa 0,0 l/m 0 min 0 min 18 W/m 22,5 km/h (4 Bft) 97,83 %
18.10.2019 18:16 13,8 C 12,8 C 12,2 C 75 % 1008,4 hPa 0,0 l/m 0 min 0 min 16 W/m 25,7 km/h (4 Bft) 97,87 %
18.10.2019 18:18 13,8 C 12,8 C 12,2 C 75 % 1008,4 hPa 0,0 l/m 0 min 0 min 14 W/m 12,9 km/h (3 Bft) 95,74 %
18.10.2019 18:20 13,8 C 12,8 C 12,2 C 75 % 1008,5 hPa 0,0 l/m 0 min 0 min 12 W/m 22,5 km/h (4 Bft) 97,87 %
18.10.2019 18:22 13,7 C 12,8 C 12,2 C 75 % 1008,5 hPa 0,0 l/m 0 min 0 min 12 W/m 22,5 km/h (4 Bft) 93,62 %
18.10.2019 18:24 13,7 C 12,8 C 12,2 C 75 % 1008,4 hPa 0,0 l/m 0 min 0 min 11 W/m 19,3 km/h (3 Bft) 97,87 %
18.10.2019 18:26 13,7 C 12,8 C 12,2 C 75 % 1008,5 hPa 0,0 l/m 0 min 0 min 9 W/m 16,1 km/h (3 Bft) 97,83 %
18.10.2019 18:28 13,7 C 12,8 C 11,7 C 75 % 1008,5 hPa 0,0 l/m 0 min 0 min 7 W/m 19,3 km/h (3 Bft) 97,87 %
18.10.2019 18:30 13,6 C 12,2 C 11,7 C 75 % 1008,5 hPa 0,0 l/m 0 min 0 min 7 W/m 22,5 km/h (4 Bft) 97,87 %
18.10.2019 18:32 13,6 C 12,2 C 12,2 C 75 % 1008,5 hPa 0,0 l/m 0 min 0 min 6 W/m 19,3 km/h (3 Bft) 97,87 %
18.10.2019 18:34 13,6 C 12,2 C 11,7 C 75 % 1008,5 hPa 0,0 l/m 0 min 0 min 5 W/m 16,1 km/h (3 Bft) 100,00 %
18.10.2019 18:36 13,6 C 12,2 C 11,7 C 75 % 1008,5 hPa 0,0 l/m 0 min 0 min 2 W/m 12,9 km/h (3 Bft) 100,00 %
18.10.2019 18:38 13,5 C 12,2 C 11,7 C 75 % 1008,6 hPa 0,0 l/m 0 min 0 min 0 W/m 12,9 km/h (3 Bft) 97,87 %
18.10.2019 18:40 13,4 C 12,2 C 11,7 C 75 % 1008,6 hPa 0,0 l/m 0 min 0 min 0 W/m 16,1 km/h (3 Bft) 100,00 %
18.10.2019 18:42 13,4 C 12,2 C 11,7 C 76 % 1008,6 hPa 0,0 l/m 0 min 0 min 0 W/m 16,1 km/h (3 Bft) 100,00 %
18.10.2019 18:44 13,4 C 12,2 C 11,7 C 76 % 1008,7 hPa 0,0 l/m 0 min 0 min 0 W/m 12,9 km/h (3 Bft) 100,00 %
18.10.2019 18:46 13,3 C 12,2 C 11,7 C 76 % 1008,7 hPa 0,0 l/m 0 min 0 min 0 W/m 19,3 km/h (3 Bft) 97,87 %
18.10.2019 18:48 13,3 C 11,7 C 11,7 C 76 % 1008,6 hPa 0,0 l/m 0 min 0 min 0 W/m 6,4 km/h (2 Bft) 100,00 %
18.10.2019 18:50 13,3 C 11,7 C 11,1 C 76 % 1008,7 hPa 0,0 l/m 0 min 0 min 0 W/m 16,1 km/h (3 Bft) 100,00 %
18.10.2019 18:52 13,3 C 12,2 C 11,7 C 76 % 1008,7 hPa 0,0 l/m 0 min 0 min 0 W/m 22,5 km/h (4 Bft) 100,00 %
18.10.2019 18:54 13,2 C 12,2 C 11,7 C 76 % 1008,7 hPa 0,0 l/m 0 min 0 min 0 W/m 22,5 km/h (4 Bft) 100,00 %
18.10.2019 18:56 13,2 C 12,2 C 11,7 C 76 % 1008,7 hPa 0,0 l/m 0 min 0 min 0 W/m 16,1 km/h (3 Bft) 100,00 %
18.10.2019 18:58 13,1 C 11,7 C 11,7 C 76 % 1008,8 hPa 0,0 l/m 0 min 0 min 0 W/m 12,9 km/h (3 Bft) 100,00 %
18.10.2019 19:00 13,1 C 11,7 C 11,7 C 76 % 1008,8 hPa 0,0 l/m 0 min 0 min 0 W/m 19,3 km/h (3 Bft) 100,00 %
18.10.2019 19:02 13,1 C 11,7 C 11,7 C 77 % 1008,8 hPa 0,0 l/m 0 min 0 min 0 W/m 16,1 km/h (3 Bft) 97,87 %
18.10.2019 19:04 13,1 C 11,7 C 11,1 C 77 % 1008,9 hPa 0,0 l/m 0 min 0 min 0 W/m 12,9 km/h (3 Bft) 100,00 %
18.10.2019 19:06 13,0 C 11,7 C 11,1 C 77 % 1008,8 hPa 0,0 l/m 0 min 0 min 0 W/m 16,1 km/h (3 Bft) 100,00 %
18.10.2019 19:08 13,0 C 11,7 C 11,1 C 77 % 1008,8 hPa 0,0 l/m 0 min 0 min 0 W/m 12,9 km/h (3 Bft) 100,00 %
18.10.2019 19:10 12,9 C 11,7 C 11,1 C 77 % 1008,9 hPa 0,0 l/m 0 min 0 min 0 W/m 6,4 km/h (2 Bft) 100,00 %
18.10.2019 19:12 12,9 C 11,7 C 11,1 C 77 % 1008,9 hPa 0,0 l/m 0 min 0 min 0 W/m 12,9 km/h (3 Bft) 100,00 %
18.10.2019 19:14 12,9 C 11,1 C 10,6 C 77 % 1008,9 hPa 0,0 l/m 0 min 0 min 0 W/m 12,9 km/h (3 Bft) 97,87 %
18.10.2019 19:16 12,9 C 11,1 C 10,6 C 77 % 1008,9 hPa 0,0 l/m 0 min 0 min 0 W/m 12,9 km/h (3 Bft) 100,00 %
18.10.2019 19:18 12,8 C 11,1 C 10,6 C 78 % 1008,9 hPa 0,0 l/m 0 min 0 min 0 W/m 12,9 km/h (3 Bft) 100,00 %
18.10.2019 19:20 12,8 C 11,1 C 10,6 C 78 % 1008,9 hPa 0,0 l/m 0 min 0 min 0 W/m 12,9 km/h (3 Bft) 97,87 %
18.10.2019 19:22 12,7 C 11,1 C 11,1 C 78 % 1009,0 hPa 0,0 l/m 0 min 0 min 0 W/m 16,1 km/h (3 Bft) 100,00 %
18.10.2019 19:24 12,7 C 11,1 C 10,6 C 78 % 1009,0 hPa 0,0 l/m 0 min 0 min 0 W/m 19,3 km/h (3 Bft) 97,87 %
18.10.2019 19:26 12,7 C 11,1 C 10,6 C 78 % 1008,9 hPa 0,0 l/m 0 min 0 min 0 W/m 16,1 km/h (3 Bft) 100,00 %
18.10.2019 19:28 12,6 C 11,1 C 10,6 C 78 % 1009,0 hPa 0,0 l/m 0 min 0 min 0 W/m 12,9 km/h (3 Bft) 100,00 %
18.10.2019 19:30 12,6 C 11,1 C 10,6 C 78 % 1009,0 hPa 0,0 l/m 0 min 0 min 0 W/m 12,9 km/h (3 Bft) 100,00 %
18.10.2019 19:32 12,6 C 11,1 C 10,6 C 79 % 1009,0 hPa 0,0 l/m 0 min 0 min 0 W/m 16,1 km/h (3 Bft) 97,87 %
18.10.2019 19:34 12,5 C 11,1 C 10,6 C 79 % 1009,0 hPa 0,0 l/m 0 min 0 min 0 W/m 16,1 km/h (3 Bft) 97,83 %
18.10.2019 19:36 12,4 C 11,1 C 10,6 C 79 % 1009,0 hPa 0,0 l/m 0 min 0 min 0 W/m 12,9 km/h (3 Bft) 100,00 %
18.10.2019 19:38 12,4 C 11,1 C 10,6 C 79 % 1009,0 hPa 0,0 l/m 0 min 0 min 0 W/m 19,3 km/h (3 Bft) 100,00 %
18.10.2019 19:40 12,4 C 11,1 C 10,6 C 79 % 1009,0 hPa 0,0 l/m 0 min 0 min 0 W/m 6,4 km/h (2 Bft) 100,00 %
18.10.2019 19:42 12,3 C 11,1 C 10,6 C 79 % 1009,0 hPa 0,0 l/m 0 min 0 min 0 W/m 12,9 km/h (3 Bft) 100,00 %
18.10.2019 19:44 12,3 C 11,1 C 10,6 C 79 % 1009,0 hPa 0,0 l/m 0 min 0 min 0 W/m 12,9 km/h (3 Bft) 95,74 %
18.10.2019 19:46 12,3 C 11,1 C 10,6 C 80 % 1009,0 hPa 0,0 l/m 0 min 0 min 0 W/m 6,4 km/h (2 Bft) 100,00 %
18.10.2019 19:48 12,3 C 10,6 C 10,6 C 80 % 1009,0 hPa 0,0 l/m 0 min 0 min 0 W/m 12,9 km/h (3 Bft) 100,00 %
18.10.2019 19:50 12,2 C 10,6 C 10,6 C 80 % 1009,1 hPa 0,0 l/m 0 min 0 min 0 W/m 16,1 km/h (3 Bft) 100,00 %
18.10.2019 19:52 12,2 C 10,6 C 10,6 C 80 % 1009,1 hPa 0,0 l/m 0 min 0 min 0 W/m 12,9 km/h (3 Bft) 97,87 %
18.10.2019 19:53 12,2 C 10,6 C 10,6 C 80 % 1009,1 hPa 0,0 l/m 0 min 0 min 0 W/m 12,9 km/h (3 Bft) 95,74 %
18.10.2019 19:56 12,1 C 10,6 C 10,0 C 80 % 1009,1 hPa 0,0 l/m 0 min 0 min 0 W/m 12,9 km/h (3 Bft) 100,00 %
18.10.2019 19:58 12,1 C 10,6 C 10,0 C 80 % 1009,1 hPa 0,0 l/m 0 min 0 min 0 W/m 6,4 km/h (2 Bft) 100,00 %
18.10.2019 20:00 12,1 C 10,6 C 10,0 C 81 % 1009,1 hPa 0,0 l/m 0 min 0 min 0 W/m 12,9 km/h (3 Bft) 97,87 %
18.10.2019 20:02 12,1 C 10,6 C 10,0 C 81 % 1009,1 hPa 0,0 l/m 0 min 0 min 0 W/m 12,9 km/h (3 Bft) 97,87 %
18.10.2019 20:04 12,0 C 10,6 C 10,0 C 81 % 1009,1 hPa 0,0 l/m 0 min 0 min 0 W/m 16,1 km/h (3 Bft) 95,74 %
18.10.2019 20:06 11,9 C 10,6 C 10,6 C 81 % 1009,0 hPa 0,0 l/m 0 min 0 min 0 W/m 12,9 km/h (3 Bft) 97,87 %
18.10.2019 20:08 11,9 C 10,6 C 10,6 C 81 % 1009,0 hPa 0,0 l/m 0 min 0 min 0 W/m 12,9 km/h (3 Bft) 97,87 %
18.10.2019 20:10 11,9 C 10,6 C 10,6 C 81 % 1009,0 hPa 0,0 l/m 0 min 0 min 0 W/m 12,9 km/h (3 Bft) 97,83 %
18.10.2019 20:12 11,9 C 10,6 C 10,0 C 82 % 1009,0 hPa 0,0 l/m 0 min 0 min 0 W/m 12,9 km/h (3 Bft) 95,74 %
18.10.2019 20:14 11,9 C 10,6 C 10,0 C 82 % 1009,0 hPa 0,0 l/m 0 min 0 min 0 W/m 16,1 km/h (3 Bft) 97,87 %
18.10.2019 20:16 11,8 C 10,6 C 10,0 C 82 % 1009,0 hPa 0,0 l/m 0 min 0 min 0 W/m 12,9 km/h (3 Bft) 95,74 %
18.10.2019 20:18 11,8 C 10,6 C 10,6 C 82 % 1009,0 hPa 0,0 l/m 0 min 0 min 0 W/m 12,9 km/h (3 Bft) 97,87 %
18.10.2019 20:20 11,8 C 10,6 C 10,6 C 82 % 1008,9 hPa 0,0 l/m 0 min 0 min 0 W/m 12,9 km/h (3 Bft) 93,48 %
18.10.2019 20:22 11,8 C 10,6 C 10,6 C 82 % 1008,9 hPa 0,0 l/m 0 min 0 min 0 W/m 12,9 km/h (3 Bft) 97,87 %
18.10.2019 20:24 11,8 C 10,6 C 10,0 C 82 % 1008,9 hPa 0,0 l/m 0 min 0 min 0 W/m 16,1 km/h (3 Bft) 97,87 %
18.10.2019 20:26 11,7 C 10,6 C 10,0 C 83 % 1008,9 hPa 0,0 l/m 0 min 0 min 0 W/m 12,9 km/h (3 Bft) 97,87 %
18.10.2019 20:28 11,7 C 10,6 C 10,0 C 83 % 1008,9 hPa 0,0 l/m 0 min 0 min 0 W/m 16,1 km/h (3 Bft) 95,74 %
18.10.2019 20:30 11,7 C 10,6 C 10,0 C 83 % 1008,9 hPa 0,0 l/m 0 min 0 min 0 W/m 12,9 km/h (3 Bft) 97,87 %
18.10.2019 20:32 11,7 C 10,6 C 10,0 C 83 % 1008,9 hPa 0,0 l/m 0 min 0 min 0 W/m 19,3 km/h (3 Bft) 97,83 %
18.10.2019 20:34 11,7 C 10,6 C 10,0 C 83 % 1008,8 hPa 0,0 l/m 0 min 0 min 0 W/m 25,7 km/h (4 Bft) 97,87 %
18.10.2019 20:36 11,7 C 10,6 C 10,0 C 83 % 1008,8 hPa 0,0 l/m 0 min 0 min 0 W/m 16,1 km/h (3 Bft) 97,87 %
18.10.2019 20:38 11,7 C 10,6 C 10,0 C 83 % 1008,8 hPa 0,0 l/m 0 min 0 min 0 W/m 16,1 km/h (3 Bft) 89,36 %
18.10.2019 20:40 11,6 C 10,6 C 10,0 C 83 % 1008,8 hPa 0,0 l/m 0 min 0 min 0 W/m 12,9 km/h (3 Bft) 95,74 %
18.10.2019 20:42 11,6 C 10,6 C 10,6 C 83 % 1008,8 hPa 0,0 l/m 0 min 0 min 0 W/m 19,3 km/h (3 Bft) 95,74 %
18.10.2019 20:44 11,6 C 10,6 C 10,0 C 83 % 1008,9 hPa 0,0 l/m 0 min 0 min 0 W/m 12,9 km/h (3 Bft) 95,65 %
18.10.2019 20:46 11,6 C 10,6 C 10,6 C 83 % 1008,9 hPa 0,0 l/m 0 min 0 min 0 W/m 16,1 km/h (3 Bft) 97,87 %
18.10.2019 20:48 11,6 C 10,6 C 10,6 C 83 % 1008,8 hPa 0,0 l/m 0 min 0 min 0 W/m 16,1 km/h (3 Bft) 97,87 %
18.10.2019 20:50 11,6 C 10,6 C 10,6 C 83 % 1008,8 hPa 0,0 l/m 0 min 0 min 0 W/m 16,1 km/h (3 Bft) 97,87 %
18.10.2019 20:52 11,6 C 10,6 C 10,6 C 83 % 1008,8 hPa 0,0 l/m 0 min 0 min 0 W/m 16,1 km/h (3 Bft) 97,87 %
18.10.2019 20:54 11,6 C 10,6 C 10,0 C 83 % 1008,8 hPa 0,0 l/m 0 min 0 min 0 W/m 16,1 km/h (3 Bft) 95,74 %
18.10.2019 20:56 11,6 C 10,6 C 10,0 C 83 % 1008,8 hPa 0,0 l/m 0 min 0 min 0 W/m 16,1 km/h (3 Bft) 95,65 %
18.10.2019 20:58 11,6 C 10,6 C 10,0 C 83 % 1008,8 hPa 0,0 l/m 0 min 0 min 0 W/m 12,9 km/h (3 Bft) 95,74 %
18.10.2019 21:00 11,6 C 10,6 C 10,0 C 83 % 1008,8 hPa 0,0 l/m 0 min 0 min 0 W/m 19,3 km/h (3 Bft) 95,74 %
18.10.2019 21:02 11,6 C 10,6 C 10,0 C 83 % 1008,7 hPa 0,0 l/m 0 min 0 min 0 W/m 16,1 km/h (3 Bft) 93,62 %
18.10.2019 21:04 11,6 C 10,6 C 10,0 C 83 % 1008,7 hPa 0,0 l/m 0 min 0 min 0 W/m 22,5 km/h (4 Bft) 95,74 %
18.10.2019 21:06 11,6 C 10,6 C 10,0 C 83 % 1008,7 hPa 0,0 l/m 0 min 0 min 0 W/m 16,1 km/h (3 Bft) 93,62 %
18.10.2019 21:08 11,6 C 10,6 C 10,6 C 83 % 1008,7 hPa 0,0 l/m 0 min 0 min 0 W/m 12,9 km/h (3 Bft) 97,83 %
18.10.2019 21:10 11,6 C 10,6 C 10,6 C 83 % 1008,7 hPa 0,0 l/m 0 min 0 min 0 W/m 19,3 km/h (3 Bft) 95,74 %
18.10.2019 21:12 11,6 C 10,6 C 10,0 C 83 % 1008,7 hPa 0,0 l/m 0 min 0 min 0 W/m 12,9 km/h (3 Bft) 93,62 %
18.10.2019 21:14 11,6 C 10,6 C 10,0 C 83 % 1008,7 hPa 0,0 l/m 0 min 0 min 0 W/m 16,1 km/h (3 Bft) 95,74 %
18.10.2019 21:16 11,6 C 10,6 C 10,0 C 83 % 1008,7 hPa 0,0 l/m 0 min 0 min 0 W/m 16,1 km/h (3 Bft) 95,74 %
18.10.2019 21:18 11,6 C 10,6 C 10,0 C 83 % 1008,7 hPa 0,0 l/m 0 min 0 min 0 W/m 16,1 km/h (3 Bft) 95,74 %
18.10.2019 21:20 11,5 C 10,6 C 10,0 C 83 % 1008,7 hPa 0,0 l/m 0 min 0 min 0 W/m 19,3 km/h (3 Bft) 95,65 %
18.10.2019 21:22 11,5 C 10,6 C 10,0 C 83 % 1008,6 hPa 0,0 l/m 0 min 0 min 0 W/m 16,1 km/h (3 Bft) 97,87 %
18.10.2019 21:24 11,5 C 10,6 C 10,0 C 83 % 1008,6 hPa 0,0 l/m 0 min 0 min 0 W/m 12,9 km/h (3 Bft) 91,49 %
18.10.2019 21:26 11,5 C 10,6 C 10,0 C 83 % 1008,7 hPa 0,0 l/m 0 min 0 min 0 W/m 12,9 km/h (3 Bft) 95,74 %
18.10.2019 21:28 11,5 C 10,6 C 10,0 C 83 % 1008,8 hPa 0,0 l/m 0 min 0 min 0 W/m 16,1 km/h (3 Bft) 95,74 %
18.10.2019 21:30 11,5 C 10,6 C 10,0 C 83 % 1008,7 hPa 0,0 l/m 0 min 0 min 0 W/m 29,0 km/h (5 Bft) 97,87 %
18.10.2019 21:32 11,5 C 10,6 C 10,0 C 83 % 1008,7 hPa 0,0 l/m 0 min 0 min 0 W/m 12,9 km/h (3 Bft) 97,83 %
18.10.2019 21:34 11,5 C 10,6 C 10,0 C 83 % 1008,7 hPa 0,0 l/m 0 min 0 min 0 W/m 16,1 km/h (3 Bft) 97,87 %
18.10.2019 21:36 11,5 C 10,6 C 10,0 C 83 % 1008,8 hPa 0,0 l/m 0 min 0 min 0 W/m 16,1 km/h (3 Bft) 97,87 %
18.10.2019 21:38 11,5 C 10,6 C 10,0 C 83 % 1008,8 hPa 0,0 l/m 0 min 0 min 0 W/m 16,1 km/h (3 Bft) 97,87 %
18.10.2019 21:40 11,5 C 10,6 C 10,0 C 83 % 1008,8 hPa 0,0 l/m 0 min 0 min 0 W/m 16,1 km/h (3 Bft) 95,74 %
18.10.2019 21:42 11,5 C 10,6 C 10,0 C 83 % 1008,8 hPa 0,0 l/m 0 min 0 min 0 W/m 22,5 km/h (4 Bft) 97,83 %
18.10.2019 21:44 11,5 C 10,6 C 10,0 C 83 % 1008,8 hPa 0,0 l/m 0 min 0 min 0 W/m 16,1 km/h (3 Bft) 95,74 %
18.10.2019 21:46 11,5 C 10,6 C 10,0 C 83 % 1008,8 hPa 0,0 l/m 0 min 0 min 0 W/m 12,9 km/h (3 Bft) 97,87 %
18.10.2019 21:48 11,5 C 10,6 C 10,0 C 83 % 1008,8 hPa 0,0 l/m 0 min 0 min 0 W/m 16,1 km/h (3 Bft) 97,87 %
18.10.2019 21:50 11,5 C 10,6 C 10,0 C 83 % 1008,8 hPa 0,0 l/m 0 min 0 min 0 W/m 19,3 km/h (3 Bft) 97,87 %
18.10.2019 21:52 11,5 C 10,6 C 10,0 C 83 % 1008,8 hPa 0,0 l/m 0 min 0 min 0 W/m 12,9 km/h (3 Bft) 91,49 %
18.10.2019 21:54 11,5 C 10,6 C 10,0 C 83 % 1008,7 hPa 0,0 l/m 0 min 0 min 0 W/m 12,9 km/h (3 Bft) 97,83 %
18.10.2019 21:56 11,5 C 10,6 C 10,0 C 83 % 1008,7 hPa 0,0 l/m 0 min 0 min 0 W/m 16,1 km/h (3 Bft) 97,87 %
18.10.2019 21:58 11,5 C 10,6 C 10,0 C 83 % 1008,7 hPa 0,0 l/m 0 min 0 min 0 W/m 16,1 km/h (3 Bft) 97,87 %
18.10.2019 22:00 11,4 C 10,6 C 10,0 C 83 % 1008,7 hPa 0,0 l/m 0 min 0 min 0 W/m 12,9 km/h (3 Bft) 97,87 %
18.10.2019 22:02 11,5 C 10,6 C 10,0 C 83 % 1008,7 hPa 0,0 l/m 0 min 0 min 0 W/m 16,1 km/h (3 Bft) 100,00 %
18.10.2019 22:04 11,4 C 10,6 C 10,0 C 83 % 1008,7 hPa 0,0 l/m 0 min 0 min 0 W/m 19,3 km/h (3 Bft) 100,00 %
18.10.2019 22:06 11,4 C 10,6 C 10,0 C 83 % 1008,6 hPa 0,0 l/m 0 min 0 min 0 W/m 19,3 km/h (3 Bft) 100,00 %
18.10.2019 22:08 11,4 C 10,6 C 10,0 C 83 % 1008,6 hPa 0,0 l/m 0 min 0 min 0 W/m 9,7 km/h (2 Bft) 100,00 %
18.10.2019 22:10 11,4 C 10,6 C 10,0 C 83 % 1008,6 hPa 0,0 l/m 0 min 0 min 0 W/m 12,9 km/h (3 Bft) 100,00 %
18.10.2019 22:12 11,4 C 10,6 C 10,0 C 83 % 1008,6 hPa 0,0 l/m 0 min 0 min 0 W/m 19,3 km/h (3 Bft) 97,87 %
18.10.2019 22:14 11,4 C 10,6 C 10,0 C 83 % 1008,6 hPa 0,0 l/m 0 min 0 min 0 W/m 16,1 km/h (3 Bft) 100,00 %
18.10.2019 22:16 11,4 C 10,6 C 10,0 C 83 % 1008,6 hPa 0,0 l/m 0 min 0 min 0 W/m 16,1 km/h (3 Bft) 100,00 %
18.10.2019 22:18 11,4 C 10,6 C 10,0 C 83 % 1008,6 hPa 0,0 l/m 0 min 0 min 0 W/m 16,1 km/h (3 Bft) 97,87 %
18.10.2019 22:20 11,4 C 10,6 C 10,0 C 83 % 1008,6 hPa 0,0 l/m 0 min 0 min 0 W/m 22,5 km/h (4 Bft) 97,87 %
18.10.2019 22:22 11,4 C 10,6 C 10,0 C 83 % 1008,7 hPa 0,0 l/m 0 min 0 min 0 W/m 16,1 km/h (3 Bft) 97,87 %
18.10.2019 22:24 11,4 C 10,6 C 10,0 C 83 % 1008,7 hPa 0,0 l/m 0 min 0 min 0 W/m 16,1 km/h (3 Bft) 100,00 %
18.10.2019 22:26 11,4 C 10,6 C 10,0 C 83 % 1008,6 hPa 0,0 l/m 0 min 0 min 0 W/m 12,9 km/h (3 Bft) 97,87 %
18.10.2019 22:28 11,4 C 10,6 C 10,0 C 83 % 1008,6 hPa 0,0 l/m 0 min 0 min 0 W/m 12,9 km/h (3 Bft) 100,00 %
18.10.2019 22:30 11,4 C 10,6 C 10,0 C 83 % 1008,6 hPa 0,0 l/m 0 min 0 min 0 W/m 12,9 km/h (3 Bft) 97,83 %
18.10.2019 22:32 11,4 C 10,6 C 10,0 C 83 % 1008,6 hPa 0,0 l/m 0 min 0 min 0 W/m 22,5 km/h (4 Bft) 100,00 %
18.10.2019 22:34 11,4 C 10,6 C 10,0 C 83 % 1008,6 hPa 0,0 l/m 0 min 0 min 0 W/m 16,1 km/h (3 Bft) 97,87 %
18.10.2019 22:36 11,4 C 10,6 C 10,0 C 83 % 1008,6 hPa 0,0 l/m 0 min 0 min 0 W/m 12,9 km/h (3 Bft) 95,74 %
18.10.2019 22:38 11,4 C 10,6 C 10,0 C 83 % 1008,6 hPa 0,0 l/m 0 min 0 min 0 W/m 16,1 km/h (3 Bft) 97,87 %
18.10.2019 22:40 11,4 C 10,6 C 10,0 C 83 % 1008,6 hPa 0,0 l/m 0 min 0 min 0 W/m 12,9 km/h (3 Bft) 97,83 %
18.10.2019 22:42 11,4 C 10,6 C 10,0 C 83 % 1008,6 hPa 0,0 l/m 0 min 0 min 0 W/m 16,1 km/h (3 Bft) 97,87 %
18.10.2019 22:44 11,4 C 10,6 C 10,0 C 83 % 1008,6 hPa 0,0 l/m 0 min 0 min 0 W/m 16,1 km/h (3 Bft) 97,87 %
18.10.2019 22:46 11,4 C 10,6 C 10,0 C 83 % 1008,6 hPa 0,0 l/m 0 min 0 min 0 W/m 12,9 km/h (3 Bft) 97,87 %
18.10.2019 22:48 11,3 C 10,6 C 10,0 C 83 % 1008,5 hPa 0,0 l/m 0 min 0 min 0 W/m 16,1 km/h (3 Bft) 97,87 %
18.10.2019 22:50 11,3 C 10,6 C 10,0 C 83 % 1008,5 hPa 0,0 l/m 0 min 0 min 0 W/m 12,9 km/h (3 Bft) 97,87 %
18.10.2019 22:52 11,3 C 10,6 C 10,0 C 83 % 1008,5 hPa 0,0 l/m 0 min 0 min 0 W/m 12,9 km/h (3 Bft) 95,65 %
18.10.2019 22:54 11,3 C 10,6 C 10,0 C 84 % 1008,5 hPa 0,0 l/m 0 min 0 min 0 W/m 12,9 km/h (3 Bft) 97,87 %
18.10.2019 22:56 11,3 C 10,0 C 10,0 C 84 % 1008,5 hPa 0,0 l/m 0 min 0 min 0 W/m 6,4 km/h (2 Bft) 97,87 %
18.10.2019 22:58 11,3 C 10,0 C 10,0 C 84 % 1008,5 hPa 0,0 l/m 0 min 0 min 0 W/m 6,4 km/h (2 Bft) 97,87 %
18.10.2019 23:00 11,3 C 10,0 C 10,0 C 84 % 1008,5 hPa 0,0 l/m 0 min 0 min 0 W/m 12,9 km/h (3 Bft) 97,87 %
18.10.2019 23:02 11,3 C 10,0 C 10,0 C 84 % 1008,5 hPa 0,0 l/m 0 min 0 min 0 W/m 12,9 km/h (3 Bft) 95,74 %
18.10.2019 23:04 11,3 C 10,0 C 10,0 C 84 % 1008,5 hPa 0,0 l/m 0 min 0 min 0 W/m 12,9 km/h (3 Bft) 97,83 %
18.10.2019 23:06 11,3 C 10,0 C 10,0 C 84 % 1008,5 hPa 0,0 l/m 0 min 0 min 0 W/m 12,9 km/h (3 Bft) 97,87 %
18.10.2019 23:08 11,2 C 10,0 C 10,0 C 84 % 1008,5 hPa 0,0 l/m 0 min 0 min 0 W/m 16,1 km/h (3 Bft) 97,87 %
18.10.2019 23:10 11,2 C 10,0 C 10,0 C 84 % 1008,5 hPa 0,0 l/m 0 min 0 min 0 W/m 12,9 km/h (3 Bft) 97,87 %
18.10.2019 23:12 11,2 C 10,0 C 9,4 C 84 % 1008,4 hPa 0,0 l/m 0 min 0 min 0 W/m 12,9 km/h (3 Bft) 97,87 %
18.10.2019 23:14 11,2 C 10,0 C 9,4 C 84 % 1008,4 hPa 0,0 l/m 0 min 0 min 0 W/m 12,9 km/h (3 Bft) 97,87 %
18.10.2019 23:16 11,2 C 10,0 C 10,0 C 84 % 1008,4 hPa 0,0 l/m 0 min 0 min 0 W/m 12,9 km/h (3 Bft) 97,83 %
18.10.2019 23:18 11,2 C 10,0 C 9,4 C 84 % 1008,4 hPa 0,0 l/m 0 min 0 min 0 W/m 16,1 km/h (3 Bft) 100,00 %
18.10.2019 23:20 11,2 C 10,0 C 9,4 C 84 % 1008,4 hPa 0,0 l/m 0 min 0 min 0 W/m 12,9 km/h (3 Bft) 100,00 %
18.10.2019 23:22 11,1 C 10,0 C 9,4 C 84 % 1008,5 hPa 0,0 l/m 0 min 0 min 0 W/m 6,4 km/h (2 Bft) 100,00 %
18.10.2019 23:24 11,1 C 10,0 C 9,4 C 84 % 1008,4 hPa 0,0 l/m 0 min 0 min 0 W/m 6,4 km/h (2 Bft) 97,87 %
18.10.2019 23:26 11,1 C 10,0 C 9,4 C 84 % 1008,4 hPa 0,0 l/m 0 min 0 min 0 W/m 12,9 km/h (3 Bft) 100,00 %
18.10.2019 23:28 11,1 C 10,0 C 9,4 C 85 % 1008,3 hPa 0,0 l/m 0 min 0 min 0 W/m 12,9 km/h (3 Bft) 100,00 %
18.10.2019 23:30 11,1 C 10,0 C 9,4 C 85 % 1008,3 hPa 0,0 l/m 0 min 0 min 0 W/m 12,9 km/h (3 Bft) 97,87 %
18.10.2019 23:32 11,1 C 10,0 C 9,4 C 85 % 1008,4 hPa 0,0 l/m 0 min 0 min 0 W/m 12,9 km/h (3 Bft) 97,87 %
18.10.2019 23:34 11,1 C 10,0 C 9,4 C 85 % 1008,4 hPa 0,0 l/m 0 min 0 min 0 W/m 12,9 km/h (3 Bft) 97,87 %
18.10.2019 23:36 11,0 C 10,0 C 9,4 C 85 % 1008,3 hPa 0,0 l/m 0 min 0 min 0 W/m 12,9 km/h (3 Bft) 97,87 %
18.10.2019 23:38 11,0 C 10,0 C 9,4 C 85 % 1008,4 hPa 0,0 l/m 0 min 0 min 0 W/m 12,9 km/h (3 Bft) 97,87 %
18.10.2019 23:40 11,0 C 10,0 C 9,4 C 85 % 1008,3 hPa 0,0 l/m 0 min 0 min 0 W/m 16,1 km/h (3 Bft) 97,83 %
18.10.2019 23:42 11,0 C 10,0 C 9,4 C 85 % 1008,3 hPa 0,0 l/m 0 min 0 min 0 W/m 16,1 km/h (3 Bft) 97,87 %
18.10.2019 23:44 11,0 C 10,0 C 9,4 C 85 % 1008,3 hPa 0,0 l/m 0 min 0 min 0 W/m 16,1 km/h (3 Bft) 97,87 %
18.10.2019 23:46 11,0 C 10,0 C 9,4 C 85 % 1008,3 hPa 0,0 l/m 0 min 0 min 0 W/m 12,9 km/h (3 Bft) 97,87 %
18.10.2019 23:48 11,0 C 10,0 C 9,4 C 85 % 1008,2 hPa 0,0 l/m 0 min 0 min 0 W/m 19,3 km/h (3 Bft) 95,74 %
18.10.2019 23:50 11,0 C 10,0 C 9,4 C 86 % 1008,2 hPa 0,0 l/m 0 min 0 min 0 W/m 16,1 km/h (3 Bft) 97,83 %
18.10.2019 23:52 10,9 C 10,0 C 9,4 C 86 % 1008,2 hPa 0,0 l/m 0 min 0 min 0 W/m 12,9 km/h (3 Bft) 97,87 %
18.10.2019 23:54 10,9 C 10,0 C 9,4 C 86 % 1008,2 hPa 0,0 l/m 0 min 0 min 0 W/m 12,9 km/h (3 Bft) 97,87 %
18.10.2019 23:56 10,9 C 10,0 C 10,0 C 86 % 1008,2 hPa 0,0 l/m 0 min 0 min 0 W/m 12,9 km/h (3 Bft) 95,74 %
18.10.2019 23:58 10,9 C 10,0 C 9,4 C 86 % 1008,2 hPa 0,0 l/m 0 min 0 min 0 W/m 12,9 km/h (3 Bft) 95,74 %
_ Min-Zeit 23:52 11:54 11:54 16:56 11:30 - - - - 00:02 00:02
Minimum _ 10,9 C 9,4 C 9,4 C 73 % 1004,1 hPa - - - - 0,0 km/h (0 Bft) 12,50 %
_ Max-Zeit 11:16 11:08 11:08 00:00 00:00 11:52 09:56 12:08 14:26 15:28 00:10
Maximum _ 16,7 C 20,0 C 16,7 C 98 % 1010,1 hPa 0,8 l/m 2 min 4 min 651 W/m 54,7 km/h
S-SO (7 Bft)
100,00 %
Durchschnitt _ 13,0 C 12,3 C 11,4 C 88 % 1007,5 hPa #5,0 l/m #3:08 h #2:16 h 156 W/m 17,6 km/h (3 Bft) 97,42 %
© 2019 W. Hausmann